PORTS® Data Listing: 8465705 New Haven, CT

CO-OPS RAW PORTS DATA

************************      PRELIMINARY DATA      ************************** 

     THIS RAW DATA HAS NOT BEEN SUBJECT TO THE NATIONAL OCEAN SERVICE'S        
     QUALITY CONTROL OR QUALITY ASSURANCE PROCEDURES AND DOES NOT MEET         
     THE CRITERIA AND STANDARDS OF OFFICIAL NATIONAL OCEAN SERVICE             
     DATA.  IT IS RELEASED FOR LIMITED PUBLIC USE AS PRELIMINARY DATA TO       
     BE USED ONLY WITH APPROPRIATE CAUTION.                                    

************************      PRELIMINARY DATA      ************************** 


       CD   -   Calendar date
       T    -   Time
       TZ   -   Timezone
       PW   -   Predicted water level (feet above MLLW)
       OW   -   Observed water level (feet above MLLW)
       WS   -   Wind speed (knots)
       WD   -   Wind direction (degrees true)
       WG   -   Wind gust (knots)
       AT   -   Air temperature (degrees farenheit)
       WT   -   Water temperature (degrees farenheit)
       AP   -   Air pressure (millibars)
       SA   -   Salinty (PSU - Practical Salinity Units)
       SG   -   Specific gravity
       RH   -   Relative humidity
       AG   -   Air gap (feet)
       VI   -   Visibility (nautical miles)

       ** NOTE **
       A variable that has its data fields filled with "9"s, indicates that
       data was not collected for that sample period.
       **********


STATION NAME: New Haven (8465705)
****************************************************************************************************
    CD       T    TZ    PW     OW    WS   WD   WG    AT    WT    AP    SA    SG     RH    AG   VI
****************************************************************************************************
2020/01/17 00:36 EST    2.45   1.37   14  346   33  29.8  40.6 1021.1 -9.9 -9.999 -99.9 -99.99 -9.99
2020/01/17 00:42 EST    2.62   1.59   12    5   25  29.7  40.6 1021.2 -9.9 -9.999 -99.9 -99.99 -9.99
2020/01/17 00:48 EST    2.78   1.82   13  353   31  29.7  40.8 1021.1 -9.9 -9.999 -99.9 -99.99 -9.99
2020/01/17 00:54 EST    2.94   2.04   15  354   30  29.3  40.8 1021.4 -9.9 -9.999 -99.9 -99.99 -9.99
2020/01/17 01:00 EST    3.10   2.23   19  347   30  28.9  41.0 1021.5 -9.9 -9.999 -99.9 -99.99 -9.99
2020/01/17 01:06 EST    3.26   2.39   16  343   27  28.8  41.0 1021.4 -9.9 -9.999 -99.9 -99.99 -9.99
2020/01/17 01:12 EST    3.42   2.49   16  360   33  28.8  40.8 1021.3 -9.9 -9.999 -99.9 -99.99 -9.99
2020/01/17 01:18 EST    3.58   2.59   17  355   39  28.4  40.8 1021.2 -9.9 -9.999 -99.9 -99.99 -9.99
2020/01/17 01:24 EST    3.73   2.69   14    5   38  28.6  40.8 1021.6 -9.9 -9.999 -99.9 -99.99 -9.99
2020/01/17 01:30 EST    3.88   2.81   10  348   33  28.4  40.8 1022.1 -9.9 -9.999 -99.9 -99.99 -9.99
2020/01/17 01:36 EST    4.03   2.94   11  359   20  28.4  40.8 1022.1 -9.9 -9.999 -99.9 -99.99 -9.99
2020/01/17 01:42 EST    4.18   3.10    9  360   25  28.0  40.8 1022.6 -9.9 -9.999 -99.9 -99.99 -9.99
2020/01/17 01:48 EST    4.33   3.25   12  353   26  28.0  41.0 1022.6 -9.9 -9.999 -99.9 -99.99 -9.99
2020/01/17 01:54 EST    4.47   3.42   20  348   33  27.9  41.0 1022.8 -9.9 -9.999 -99.9 -99.99 -9.99
2020/01/17 02:00 EST    4.61   3.57   22  344   31  27.7  41.2 1022.9 -9.9 -9.999 -99.9 -99.99 -9.99
2020/01/17 02:06 EST    4.75   3.70   16  346   27  27.5  41.2 1023.2 -9.9 -9.999 -99.9 -99.99 -9.99
2020/01/17 02:12 EST    4.88   3.83   10  353   15  27.5  41.2 1023.5 -9.9 -9.999 -99.9 -99.99 -9.99
2020/01/17 02:18 EST    5.01   4.00    6    0   15  27.5  41.0 1023.5 -9.9 -9.999 -99.9 -99.99 -9.99
2020/01/17 02:24 EST    5.14   4.16   10    1   24  27.1  41.0 1023.7 -9.9 -9.999 -99.9 -99.99 -9.99
2020/01/17 02:30 EST    5.27   4.35    6   11   22  27.1  41.0 1024.0 -9.9 -9.999 -99.9 -99.99 -9.99
2020/01/17 02:36 EST    5.39   4.52    8    9   17  27.0  40.8 1024.2 -9.9 -9.999 -99.9 -99.99 -9.99
2020/01/17 02:42 EST    5.51   4.63   10    3   19  26.8  40.8 1024.1 -9.9 -9.999 -99.9 -99.99 -9.99
2020/01/17 02:48 EST    5.62   4.71   13  343   24  26.4  40.8 1024.1 -9.9 -9.999 -99.9 -99.99 -9.99
2020/01/17 02:54 EST    5.73   4.77    9  360   19  26.1  40.8 1024.1 -9.9 -9.999 -99.9 -99.99 -9.99
2020/01/17 03:00 EST    5.83   4.84   15  350   26  26.1  40.6 1024.0 -9.9 -9.999 -99.9 -99.99 -9.99
2020/01/17 03:06 EST    5.93   4.92   21  342   28  25.7  40.6 1024.1 -9.9 -9.999 -99.9 -99.99 -9.99
2020/01/17 03:12 EST    6.02   4.98   15  346   29  25.5  40.6 1024.5 -9.9 -9.999 -99.9 -99.99 -9.99
2020/01/17 03:18 EST    6.11   5.06   14  349   27  25.3  40.6 1024.9 -9.9 -9.999 -99.9 -99.99 -9.99
2020/01/17 03:24 EST    6.19   5.15   21  342   28  25.2  40.6 1024.9 -9.9 -9.999 -99.9 -99.99 -9.99
2020/01/17 03:30 EST    6.26   5.29    9  352   25  25.3  40.6 1025.0 -9.9 -9.999 -99.9 -99.99 -9.99
2020/01/17 03:36 EST    6.32   5.42   17  343   26  24.8  40.5 1025.1 -9.9 -9.999 -99.9 -99.99 -9.99
2020/01/17 03:42 EST    6.38   5.51   10  355   26  25.2  40.5 1025.1 -9.9 -9.999 -99.9 -99.99 -9.99
2020/01/17 03:48 EST    6.43   5.61   11    2   22  25.0  40.5 1025.4 -9.9 -9.999 -99.9 -99.99 -9.99
2020/01/17 03:54 EST    6.47   5.69   14  356   22  24.4  40.5 1025.8 -9.9 -9.999 -99.9 -99.99 -9.99
2020/01/17 04:00 EST    6.50   5.72    6    7   17  24.4  40.5 1026.3 -9.9 -9.999 -99.9 -99.99 -9.99
2020/01/17 04:06 EST    6.52   5.74   10  356   20  24.3  40.5 1026.3 -9.9 -9.999 -99.9 -99.99 -9.99
2020/01/17 04:12 EST    6.53   5.74   15  348   28  23.9  40.3 1026.3 -9.9 -9.999 -99.9 -99.99 -9.99
2020/01/17 04:18 EST    6.54   5.71   13  355   25  23.9  40.3 1026.4 -9.9 -9.999 -99.9 -99.99 -9.99
2020/01/17 04:24 EST    6.53   5.69    7    1   28  23.7  40.3 1026.6 -9.9 -9.999 -99.9 -99.99 -9.99
2020/01/17 04:30 EST    6.51   5.65    9  358   17  23.9  40.3 1026.7 -9.9 -9.999 -99.9 -99.99 -9.99
2020/01/17 04:36 EST    6.48   5.60    7    6   26  23.7  40.3 1026.7 -9.9 -9.999 -99.9 -99.99 -9.99
2020/01/17 04:42 EST    6.45   5.56   12  345   25  23.2  40.3 1026.9 -9.9 -9.999 -99.9 -99.99 -9.99
2020/01/17 04:48 EST    6.40   5.52    9  358   22  23.7  40.3 1027.2 -9.9 -9.999 -99.9 -99.99 -9.99
2020/01/17 04:54 EST    6.34   5.48    9  359   21  23.4  40.3 1027.4 -9.9 -9.999 -99.9 -99.99 -9.99
2020/01/17 05:00 EST    6.28   5.42    4    6   12  23.2  40.3 1027.4 -9.9 -9.999 -99.9 -99.99 -9.99
2020/01/17 05:06 EST    6.20   5.36    6  359   15  23.2  40.1 1027.7 -9.9 -9.999 -99.9 -99.99 -9.99
2020/01/17 05:12 EST    6.12   5.27    7   15   19  23.2  40.1 1027.7 -9.9 -9.999 -99.9 -99.99 -9.99
2020/01/17 05:18 EST    6.03   5.14   10  351   18  23.0  40.1 1027.9 -9.9 -9.999 -99.9 -99.99 -9.99
2020/01/17 05:24 EST    5.93   5.03    8    4   16  22.8  40.1 1028.1 -9.9 -9.999 -99.9 -99.99 -9.99
2020/01/17 05:30 EST    5.82   4.94    9    1   17  22.5  40.1 1028.3 -9.9 -9.999 -99.9 -99.99 -9.99
2020/01/17 05:36 EST    5.71   4.87    7  358   19  22.5  40.3 1028.5 -9.9 -9.999 -99.9 -99.99 -9.99
2020/01/17 05:42 EST    5.59   4.78    6    1   14  22.6  40.3 1028.8 -9.9 -9.999 -99.9 -99.99 -9.99
2020/01/17 05:48 EST    5.46   4.65   10  355   19  22.1  40.3 1028.8 -9.9 -9.999 -99.9 -99.99 -9.99
2020/01/17 05:54 EST    5.33   4.51    6  357   20  22.5  40.3 1029.2 -9.9 -9.999 -99.9 -99.99 -9.99
2020/01/17 06:00 EST    5.20   4.38    7  351   16  21.9  40.3 1029.4 -9.9 -9.999 -99.9 -99.99 -9.99
2020/01/17 06:06 EST    5.06   4.25   11  359   22  21.6  40.3 1029.2 -9.9 -9.999 -99.9 -99.99 -9.99
2020/01/17 06:12 EST    4.92   4.12    7    9   28  21.7  40.3 1029.5 -9.9 -9.999 -99.9 -99.99 -9.99
2020/01/17 06:18 EST    4.78   3.99    8    1   17  21.4  40.3 1029.8 -9.9 -9.999 -99.9 -99.99 -9.99
2020/01/17 06:24 EST    4.63   3.85    6  357   20  21.6  40.3 1030.1 -9.9 -9.999 -99.9 -99.99 -9.99
2020/01/17 06:30 EST    4.48   3.69   12  348   28  20.8  40.3 1030.0 -9.9 -9.999 -99.9 -99.99 -9.99
2020/01/17 06:36 EST    4.33   3.56   11  357   22  21.2  40.1 1030.3 -9.9 -9.999 -99.9 -99.99 -9.99
2020/01/17 06:42 EST    4.18   3.45    6  355   18  20.8  40.1 1030.5 -9.9 -9.999 -99.9 -99.99 -9.99
2020/01/17 06:48 EST    4.03   3.34   11  356   23  20.7  40.1 1030.7 -9.9 -9.999 -99.9 -99.99 -9.99
2020/01/17 06:54 EST    3.88   3.25   16  348   24  20.1  40.1 1030.9 -9.9 -9.999 -99.9 -99.99 -9.99
2020/01/17 07:00 EST    3.73   3.13    8  356   19  20.1  40.1 1031.3 -9.9 -9.999 -99.9 -99.99 -9.99
2020/01/17 07:06 EST    3.58   3.02   16  349   21  19.6  40.1 1031.5 -9.9 -9.999 -99.9 -99.99 -9.99
2020/01/17 07:12 EST    3.43   2.86   11  352   18  19.6  40.1 1031.6 -9.9 -9.999 -99.9 -99.99 -9.99
2020/01/17 07:18 EST    3.28   2.70   12  351   21  19.4  40.1 1031.8 -9.9 -9.999 -99.9 -99.99 -9.99
2020/01/17 07:24 EST    3.13   2.55    9  360   23  19.4  40.1 1032.0 -9.9 -9.999 -99.9 -99.99 -9.99
2020/01/17 07:30 EST    2.99   2.41   12  347   20  19.4  40.1 1032.2 -9.9 -9.999 -99.9 -99.99 -9.99
2020/01/17 07:36 EST    2.84   2.28   14  348   22  19.4  40.1 1032.3 -9.9 -9.999 -99.9 -99.99 -9.99
2020/01/17 07:42 EST    2.70   2.15    9  359   20  19.4  40.1 1032.4 -9.9 -9.999 -99.9 -99.99 -9.99
2020/01/17 07:48 EST    2.55   2.02   11  359   26  19.6  40.1 1032.3 -9.9 -9.999 -99.9 -99.99 -9.99
2020/01/17 07:54 EST    2.41   1.94   12  350   21  19.2  40.1 1032.5 -9.9 -9.999 -99.9 -99.99 -9.99
2020/01/17 08:00 EST    2.27   1.85   19  340   26  18.7  40.1 1032.5 -9.9 -9.999 -99.9 -99.99 -9.99
2020/01/17 08:06 EST    2.13   1.75   16  344   28  19.0  40.1 1032.8 -9.9 -9.999 -99.9 -99.99 -9.99
2020/01/17 08:12 EST    2.00   1.67    8  356   21  19.8  40.1 1033.1 -9.9 -9.999 -99.9 -99.99 -9.99
2020/01/17 08:18 EST    1.86   1.55   11  352   18  19.2  40.1 1033.1 -9.9 -9.999 -99.9 -99.99 -9.99
2020/01/17 08:24 EST    1.73   1.42   12  348   19  19.0  40.1 1033.2 -9.9 -9.999 -99.9 -99.99 -9.99
2020/01/17 08:30 EST    1.60   1.30   10  347   19  19.4  40.1 1033.3 -9.9 -9.999 -99.9 -99.99 -9.99
2020/01/17 08:36 EST    1.47   1.19   13  349   24  19.2  39.9 1033.2 -9.9 -9.999 -99.9 -99.99 -9.99
2020/01/17 08:42 EST    1.34   1.08    9    3   25  19.6  39.9 1033.4 -9.9 -9.999 -99.9 -99.99 -9.99
2020/01/17 08:48 EST    1.22   0.95    6  345   17  20.5  39.9 1033.6 -9.9 -9.999 -99.9 -99.99 -9.99
2020/01/17 08:54 EST    1.10   0.81    7    1   16  20.3  39.9 1033.6 -9.9 -9.999 -99.9 -99.99 -9.99
2020/01/17 09:00 EST    0.98   0.67   10   11   19  19.9  39.9 1033.8 -9.9 -9.999 -99.9 -99.99 -9.99
2020/01/17 09:06 EST    0.87   0.58    7  353   19  20.3  39.9 1034.1 -9.9 -9.999 -99.9 -99.99 -9.99
2020/01/17 09:12 EST    0.76   0.51    9  359   20  20.1  39.9 1034.2 -9.9 -9.999 -99.9 -99.99 -9.99
2020/01/17 09:18 EST    0.66   0.46    9    1   17  20.1  39.9 1034.6 -9.9 -9.999 -99.9 -99.99 -9.99
2020/01/17 09:24 EST    0.56   0.44    7  346   21  20.5  39.9 1034.7 -9.9 -9.999 -99.9 -99.99 -9.99
2020/01/17 09:30 EST    0.46   0.41    7    5   16  20.5  39.9 1034.8 -9.9 -9.999 -99.9 -99.99 -9.99
2020/01/17 09:36 EST    0.37   0.37    6   12   20  20.7  39.9 1035.0 -9.9 -9.999 -99.9 -99.99 -9.99
2020/01/17 09:42 EST    0.29   0.32   12    9   19  19.9  39.9 1035.0 -9.9 -9.999 -99.9 -99.99 -9.99
2020/01/17 09:48 EST    0.22   0.23    8  357   17  20.8  39.7 1035.1 -9.9 -9.999 -99.9 -99.99 -9.99
2020/01/17 09:54 EST    0.15   0.13    8    4   18  20.8  39.7 1035.2 -9.9 -9.999 -99.9 -99.99 -9.99
2020/01/17 10:00 EST    0.09   0.02    9    0   17  20.5  39.7 1035.4 -9.9 -9.999 -99.9 -99.99 -9.99
2020/01/17 10:06 EST    0.03  -0.07    9   11   17  20.3  39.7 1035.5 -9.9 -9.999 -99.9 -99.99 -9.99
2020/01/17 10:12 EST   -0.01  -0.15    9  353   14  20.3  39.7 1035.7 -9.9 -9.999 -99.9 -99.99 -9.99
2020/01/17 10:18 EST   -0.05  -0.23   14  351   21  19.9  39.7 1035.7 -9.9 -9.999 -99.9 -99.99 -9.99
2020/01/17 10:24 EST   -0.07  -0.27   12  348   25  19.8  39.7 1036.1 -9.9 -9.999 -99.9 -99.99 -9.99
2020/01/17 10:30 EST   -0.09  -0.24    9    2   21  20.7  39.7 1036.2 -9.9 -9.999 -99.9 -99.99 -9.99
2020/01/17 10:36 EST   -0.09  -0.22   10    1   16  20.7  39.7 1036.2 -9.9 -9.999 -99.9 -99.99 -9.99
2020/01/17 10:42 EST   -0.09  -0.16   11  350   17  20.7  39.7 1036.1 -9.9 -9.999 -99.9 -99.99 -9.99
2020/01/17 10:48 EST   -0.08  -0.10   11  340   16  20.3  39.7 1036.2 -9.9 -9.999 -99.9 -99.99 -9.99
2020/01/17 10:54 EST   -0.05  -0.05   12  340   19  20.1  39.6 1036.1 -9.9 -9.999 -99.9 -99.99 -9.99
2020/01/17 11:00 EST   -0.02  -0.03   10  345   20  20.7  39.6 1036.0 -9.9 -9.999 -99.9 -99.99 -9.99
2020/01/17 11:06 EST    0.02  -0.01   14  346   22  20.5  39.6 1035.8 -9.9 -9.999 -99.9 -99.99 -9.99
2020/01/17 11:12 EST    0.07   0.02   17  337   23  19.9  39.6 1035.8 -9.9 -9.999 -99.9 -99.99 -9.99
2020/01/17 11:18 EST    0.14   0.06   16  335   18  20.5  39.6 1035.8 -9.9 -9.999 -99.9 -99.99 -9.99
2020/01/17 11:24 EST    0.21   0.12    8  353   20  21.9  39.4 1035.9 -9.9 -9.999 -99.9 -99.99 -9.99
2020/01/17 11:30 EST    0.28   0.19   12  349   23  21.4  39.4 1035.8 -9.9 -9.999 -99.9 -99.99 -9.99
2020/01/17 11:36 EST    0.37   0.30    9  354   17  21.7  39.4 1035.9 -9.9 -9.999 -99.9 -99.99 -9.99
2020/01/17 11:42 EST    0.46   0.42    9  357   15  21.6  39.4 1035.8 -9.9 -9.999 -99.9 -99.99 -9.99
2020/01/17 11:48 EST    0.57   0.53    7  358   16  22.1  39.4 1035.7 -9.9 -9.999 -99.9 -99.99 -9.99
2020/01/17 11:54 EST    0.67   0.67    7  356   16  22.3  39.6 1035.8 -9.9 -9.999 -99.9 -99.99 -9.99
2020/01/17 12:00 EST    0.79   0.81   12  347   18  21.2  39.6 1035.8 -9.9 -9.999 -99.9 -99.99 -9.99
2020/01/17 12:06 EST    0.91   0.93   11  349   19  21.6  39.7 1035.8 -9.9 -9.999 -99.9 -99.99 -9.99
2020/01/17 12:12 EST    1.03   1.05    8  342   20  22.1  39.7 1035.7 -9.9 -9.999 -99.9 -99.99 -9.99
2020/01/17 12:18 EST    1.16   1.18   17  338   20  21.7  39.9 1035.6 -9.9 -9.999 -99.9 -99.99 -9.99
2020/01/17 12:24 EST    1.29   1.30    9  349   19  22.5  39.9 1035.6 -9.9 -9.999 -99.9 -99.99 -9.99
2020/01/17 12:30 EST    1.43   1.43   12  347   21  22.1  39.9 1035.6 -9.9 -9.999 -99.9 -99.99 -9.99
2020/01/17 12:36 EST    1.56   1.57   13  344   20  22.6  39.9 1035.8 -9.9 -9.999 -99.9 -99.99 -9.99
2020/01/17 12:42 EST    1.70   1.75   13  339   18  22.6  39.9 1035.7 -9.9 -9.999 -99.9 -99.99 -9.99
2020/01/17 12:48 EST    1.84   1.92    9  350   21  22.8  39.7 1035.6 -9.9 -9.999 -99.9 -99.99 -9.99
2020/01/17 12:54 EST    1.99   2.11    6  358   19  23.4  39.7 1035.6 -9.9 -9.999 -99.9 -99.99 -9.99
2020/01/17 13:00 EST    2.13   2.28   10  344   17  22.8  39.7 1035.5 -9.9 -9.999 -99.9 -99.99 -9.99
2020/01/17 13:06 EST    2.27   2.45   19  333   23  23.0  39.9 1035.4 -9.9 -9.999 -99.9 -99.99 -9.99
2020/01/17 13:12 EST    2.42   2.60   18  334   22  23.0  39.9 1035.4 -9.9 -9.999 -99.9 -99.99 -9.99
2020/01/17 13:18 EST    2.56   2.76   15  324   20  22.3  39.9 1035.6 -9.9 -9.999 -99.9 -99.99 -9.99
2020/01/17 13:24 EST    2.70   2.89   12  345   21  23.4  39.9 1035.5 -9.9 -9.999 -99.9 -99.99 -9.99
2020/01/17 13:30 EST    2.84   3.05   16  330   20  23.4  39.9 1035.5 -9.9 -9.999 -99.9 -99.99 -9.99
2020/01/17 13:36 EST    2.98   3.18   15  340   23  23.2  39.9 1035.4 -9.9 -9.999 -99.9 -99.99 -9.99
2020/01/17 13:42 EST    3.12   3.33   10  347   17  23.7  39.9 1035.3 -9.9 -9.999 -99.9 -99.99 -9.99
2020/01/17 13:48 EST    3.26   3.47   14  337   19  23.7  39.9 1035.3 -9.9 -9.999 -99.9 -99.99 -9.99
2020/01/17 13:54 EST    3.39   3.63    6  353   15  24.6  39.9 1035.3 -9.9 -9.999 -99.9 -99.99 -9.99
2020/01/17 14:00 EST    3.53   3.80    5   12   18  24.6  39.9 1035.3 -9.9 -9.999 -99.9 -99.99 -9.99
2020/01/17 14:06 EST    3.66   3.94   13  346   19  23.7  39.9 1035.4 -9.9 -9.999 -99.9 -99.99 -9.99
2020/01/17 14:12 EST    3.79   4.05   17  333   21  23.2  39.9 1035.4 -9.9 -9.999 -99.9 -99.99 -9.99
2020/01/17 14:18 EST    3.92   4.16   16  328   22  23.4  39.9 1035.5 -9.9 -9.999 -99.9 -99.99 -9.99
2020/01/17 14:24 EST    4.05   4.25   17  337   23  23.9  39.9 1035.5 -9.9 -9.999 -99.9 -99.99 -9.99
2020/01/17 14:30 EST    4.17   4.32   13  344   22  23.9  39.9 1035.7 -9.9 -9.999 -99.9 -99.99 -9.99
2020/01/17 14:36 EST    4.30   4.42    9  352   19  24.4  39.9 1035.7 -9.9 -9.999 -99.9 -99.99 -9.99
2020/01/17 14:42 EST    4.42   4.55    4  343   17  24.8  39.9 1035.7 -9.9 -9.999 -99.9 -99.99 -9.99
2020/01/17 14:48 EST    4.54   4.70   15  338   24  23.9  39.9 1035.7 -9.9 -9.999 -99.9 -99.99 -9.99
2020/01/17 14:54 EST    4.65   4.84   17  335   21  23.9  39.9 1035.8 -9.9 -9.999 -99.9 -99.99 -9.99
2020/01/17 15:00 EST    4.77   4.99   11  346   24  24.6  39.9 1035.9 -9.9 -9.999 -99.9 -99.99 -9.99
2020/01/17 15:06 EST    4.88   5.13    8  349   18  24.6  39.9 1035.8 -9.9 -9.999 -99.9 -99.99 -9.99
2020/01/17 15:12 EST    4.98   5.22   17  336   21  24.3  39.9 1035.8 -9.9 -9.999 -99.9 -99.99 -9.99
2020/01/17 15:18 EST    5.09   5.30   11  341   20  24.8  39.9 1035.9 -9.9 -9.999 -99.9 -99.99 -9.99
2020/01/17 15:24 EST    5.18   5.38    8  352   19  24.6  39.7 1036.0 -9.9 -9.999 -99.9 -99.99 -9.99
2020/01/17 15:30 EST    5.28   5.48   15  337   21  24.4  39.7 1035.9 -9.9 -9.999 -99.9 -99.99 -9.99
2020/01/17 15:36 EST    5.37   5.55   14  342   21  24.1  39.7 1035.9 -9.9 -9.999 -99.9 -99.99 -9.99
2020/01/17 15:42 EST    5.45   5.63   16  337   21  23.7  39.7 1035.8 -9.9 -9.999 -99.9 -99.99 -9.99
2020/01/17 15:48 EST    5.53   5.70   16  336   23  24.1  39.7 1035.8 -9.9 -9.999 -99.9 -99.99 -9.99
2020/01/17 15:54 EST    5.60   5.81    9  348   19  24.4  39.6 1036.0 -9.9 -9.999 -99.9 -99.99 -9.99
2020/01/17 16:00 EST    5.67   5.93   11  345   17  24.4  39.6 1035.9 -9.9 -9.999 -99.9 -99.99 -9.99
2020/01/17 16:06 EST    5.72   6.04    8  358   19  24.4  39.4 1036.0 -9.9 -9.999 -99.9 -99.99 -9.99
2020/01/17 16:12 EST    5.77   6.15   10  351   18  24.3  39.4 1035.9 -9.9 -9.999 -99.9 -99.99 -9.99
2020/01/17 16:18 EST    5.82   6.18   14  344   19  23.9  39.4 1036.1 -9.9 -9.999 -99.9 -99.99 -9.99
2020/01/17 16:24 EST    5.85   6.19    7    3   17  23.9  39.4 1036.1 -9.9 -9.999 -99.9 -99.99 -9.99
2020/01/17 16:30 EST    5.88   6.23   12  337   18  23.5  39.2 1036.4 -9.9 -9.999 -99.9 -99.99 -9.99
2020/01/17 16:36 EST    5.89   6.26    9  345   15  23.7  39.2 1036.5 -9.9 -9.999 -99.9 -99.99 -9.99
2020/01/17 16:42 EST    5.90   6.29    8  346   15  23.5  39.2 1036.7 -9.9 -9.999 -99.9 -99.99 -9.99
2020/01/17 16:48 EST    5.90   6.29   13  337   16  23.0  39.2 1036.5 -9.9 -9.999 -99.9 -99.99 -9.99
2020/01/17 16:54 EST    5.89   6.28   14  334   17  22.6  39.2 1036.5 -9.9 -9.999 -99.9 -99.99 -9.99
2020/01/17 17:00 EST    5.87   6.26   11  343   17  23.0  39.2 1036.8 -9.9 -9.999 -99.9 -99.99 -9.99
2020/01/17 17:06 EST    5.84   6.26   16  327   20  22.6  39.2 1036.8 -9.9 -9.999 -99.9 -99.99 -9.99
2020/01/17 17:12 EST    5.80   6.25   13  336   18  22.6  39.0 1036.9 -9.9 -9.999 -99.9 -99.99 -9.99
2020/01/17 17:18 EST    5.75   6.22   15  334   20  22.3  39.0 1037.0 -9.9 -9.999 -99.9 -99.99 -9.99
2020/01/17 17:24 EST    5.69   6.18   10  347   19  22.5  39.0 1037.1 -9.9 -9.999 -99.9 -99.99 -9.99
2020/01/17 17:30 EST    5.63   6.12   10  350   17  22.3  39.0 1037.2 -9.9 -9.999 -99.9 -99.99 -9.99
2020/01/17 17:36 EST    5.56   6.04    6  350   16  22.5  39.0 1037.1 -9.9 -9.999 -99.9 -99.99 -9.99
2020/01/17 17:42 EST    5.47   5.96    6    9   13  22.3  38.8 1037.1 -9.9 -9.999 -99.9 -99.99 -9.99
2020/01/17 17:48 EST    5.39   5.87    4  350   16  22.3  38.8 1037.3 -9.9 -9.999 -99.9 -99.99 -9.99
2020/01/17 17:54 EST    5.29   5.75    9  345   14  22.1  38.8 1037.3 -9.9 -9.999 -99.9 -99.99 -9.99
2020/01/17 18:00 EST    5.19   5.65    7  357   13  21.9  38.8 1037.3 -9.9 -9.999 -99.9 -99.99 -9.99
2020/01/17 18:06 EST    5.08   5.54    7  352   14  21.9  38.8 1037.5 -9.9 -9.999 -99.9 -99.99 -9.99
2020/01/17 18:12 EST    4.97   5.43    5  358   11  21.9  38.8 1037.7 -9.9 -9.999 -99.9 -99.99 -9.99
2020/01/17 18:18 EST    4.85   5.33    4    3   11  21.9  38.8 1037.6 -9.9 -9.999 -99.9 -99.99 -9.99
2020/01/17 18:24 EST    4.72   5.22    3  353   11  22.1  38.8 1037.8 -9.9 -9.999 -99.9 -99.99 -9.99
2020/01/17 18:30 EST    4.60   5.08    6  345   12  21.4  38.8 1038.1 -9.9 -9.999 -99.9 -99.99 -9.99
2020/01/17 18:36 EST    4.47   4.95    7  345   14  21.2  38.7 1038.2 -9.9 -9.999 -99.9 -99.99 -9.99
2020/01/17 18:42 EST    4.34   4.80   10  335   13  21.4  38.7 1038.2 -9.9 -9.999 -99.9 -99.99 -9.99
2020/01/17 18:48 EST    4.20   4.66   12  332   16  21.0  38.7 1038.1 -9.9 -9.999 -99.9 -99.99 -9.99
2020/01/17 18:54 EST    4.06   4.50   14  319   17  20.8  38.8 1038.1 -9.9 -9.999 -99.9 -99.99 -9.99
2020/01/17 19:00 EST    3.93   4.34   11  334   16  20.7  38.8 1038.2 -9.9 -9.999 -99.9 -99.99 -9.99
2020/01/17 19:06 EST    3.79   4.20    9  343   14  20.5  38.8 1038.2 -9.9 -9.999 -99.9 -99.99 -9.99
2020/01/17 19:12 EST    3.65   4.08    9  345   11  20.5  38.8 1038.2 -9.9 -9.999 -99.9 -99.99 -9.99
2020/01/17 19:18 EST    3.51   3.96    9  340   12  20.1  38.8 1038.3 -9.9 -9.999 -99.9 -99.99 -9.99
2020/01/17 19:24 EST    3.37   3.86   10  335   12  20.3  38.8 1038.3 -9.9 -9.999 -99.9 -99.99 -9.99
2020/01/17 19:30 EST    3.23   3.74   15  333   17  19.8  38.8 1038.1 -9.9 -9.999 -99.9 -99.99 -9.99
2020/01/17 19:36 EST    3.09   3.63   12  339   16  20.1  39.0 1038.0 -9.9 -9.999 -99.9 -99.99 -9.99
2020/01/17 19:42 EST    2.96   3.52   12  342   17  19.8  39.0 1038.1 -9.9 -9.999 -99.9 -99.99 -9.99
2020/01/17 19:48 EST    2.82   3.39   13  335   16  19.6  39.0 1038.2 -9.9 -9.999 -99.9 -99.99 -9.99
2020/01/17 19:54 EST    2.69   3.26   11  346   18  19.2  39.0 1038.4 -9.9 -9.999 -99.9 -99.99 -9.99
2020/01/17 20:00 EST    2.55   3.10   10  346   15  19.4  39.0 1038.3 -9.9 -9.999 -99.9 -99.99 -9.99
2020/01/17 20:06 EST    2.42   2.93    8  353   13  19.2  39.0 1038.5 -9.9 -9.999 -99.9 -99.99 -9.99
2020/01/17 20:12 EST    2.29   2.78   10  344   13  19.2  39.0 1038.5 -9.9 -9.999 -99.9 -99.99 -9.99
2020/01/17 20:18 EST    2.15   2.64    8  345   15  19.4  39.0 1038.7 -9.9 -9.999 -99.9 -99.99 -9.99
2020/01/17 20:24 EST    2.03   2.48    9  348   17  19.0  39.0 1038.6 -9.9 -9.999 -99.9 -99.99 -9.99
2020/01/17 20:30 EST    1.90   2.33   10  346   16  18.9  39.0 1038.4 -9.9 -9.999 -99.9 -99.99 -9.99
2020/01/17 20:36 EST    1.77   2.20   10  349   17  19.0  39.0 1038.3 -9.9 -9.999 -99.9 -99.99 -9.99
2020/01/17 20:42 EST    1.65   2.06   14  346   18  18.7  39.0 1038.1 -9.9 -9.999 -99.9 -99.99 -9.99
2020/01/17 20:48 EST    1.52   1.94   12  346   18  18.9  39.0 1037.8 -9.9 -9.999 -99.9 -99.99 -9.99
2020/01/17 20:54 EST    1.40   1.81    8  350   16  18.9  39.0 1037.9 -9.9 -9.999 -99.9 -99.99 -9.99
2020/01/17 21:00 EST    1.28   1.70   14  340   17  18.3  39.0 1037.6 -9.9 -9.999 -99.9 -99.99 -9.99
2020/01/17 21:06 EST    1.16   1.60   11  348   18  18.3  39.0 1037.5 -9.9 -9.999 -99.9 -99.99 -9.99
2020/01/17 21:12 EST    1.05   1.52    7  353   15  18.5  39.0 1037.5 -9.9 -9.999 -99.9 -99.99 -9.99
2020/01/17 21:18 EST    0.94   1.45    5  348   15  18.3  38.8 1037.7 -9.9 -9.999 -99.9 -99.99 -9.99
2020/01/17 21:24 EST    0.83   1.38    5    5   14  18.9  38.8 1037.8 -9.9 -9.999 -99.9 -99.99 -9.99
2020/01/17 21:30 EST    0.72   1.29    4   15   10  18.7  38.8 1037.7 -9.9 -9.999 -99.9 -99.99 -9.99
2020/01/17 21:36 EST    0.62   1.20    5    8   10  18.1  38.7 1037.8 -9.9 -9.999 -99.9 -99.99 -9.99
2020/01/17 21:42 EST    0.52   1.09    4  347    9  18.1  38.7 1037.8 -9.9 -9.999 -99.9 -99.99 -9.99
2020/01/17 21:48 EST    0.43   0.97    5   12   13  18.3  38.7 1037.7 -9.9 -9.999 -99.9 -99.99 -9.99
2020/01/17 21:54 EST    0.34   0.84    5    1    9  18.3  38.5 1037.7 -9.9 -9.999 -99.9 -99.99 -9.99
2020/01/17 22:00 EST    0.26   0.74    3    6   11  18.1  38.5 1037.7 -9.9 -9.999 -99.9 -99.99 -9.99
2020/01/17 22:06 EST    0.18   0.62    4   10   11  18.1  38.5 1037.4 -9.9 -9.999 -99.9 -99.99 -9.99
2020/01/17 22:12 EST    0.11   0.51    5    8   11  18.0  38.5 1037.5 -9.9 -9.999 -99.9 -99.99 -9.99
2020/01/17 22:18 EST    0.05   0.43    6    1   13  18.0  38.5 1037.4 -9.9 -9.999 -99.9 -99.99 -9.99
2020/01/17 22:24 EST   -0.00   0.37    5   16   11  18.1  38.5 1037.7 -9.9 -9.999 -99.9 -99.99 -9.99
2020/01/17 22:30 EST   -0.05   0.34    7  351   10  17.8  38.5 1037.9 -9.9 -9.999 -99.9 -99.99 -9.99
2020/01/17 22:36 EST   -0.09   0.32    6    2    9  17.6  38.7 1037.9 -9.9 -9.999 -99.9 -99.99 -9.99
2020/01/17 22:42 EST   -0.12   0.33    9  344   12  17.4  38.7 1038.1 -9.9 -9.999 -99.9 -99.99 -9.99
2020/01/17 22:48 EST   -0.14   0.34    8  349   11  17.6  38.7 1038.3 -9.9 -9.999 -99.9 -99.99 -9.99
2020/01/17 22:54 EST   -0.15   0.34    6  347   13  17.4  38.7 1038.4 -9.9 -9.999 -99.9 -99.99 -9.99
2020/01/17 23:00 EST   -0.15   0.35    6  348   12  17.4  38.5 1038.7 -9.9 -9.999 -99.9 -99.99 -9.99
2020/01/17 23:06 EST   -0.14   0.36    7  342   12  17.4  38.5 1038.7 -9.9 -9.999 -99.9 -99.99 -9.99
2020/01/17 23:12 EST   -0.13   0.36   11  339   16  17.2  38.5 1038.7 -9.9 -9.999 -99.9 -99.99 -9.99
2020/01/17 23:18 EST   -0.10   0.36   11  340   15  17.4  38.5 1038.7 -9.9 -9.999 -99.9 -99.99 -9.99
2020/01/17 23:24 EST   -0.06   0.35    9  353   14  17.6  38.5 1038.5 -9.9 -9.999 -99.9 -99.99 -9.99
2020/01/17 23:30 EST   -0.01   0.37    7  347   12  17.6  38.5 1038.4 -9.9 -9.999 -99.9 -99.99 -9.99
2020/01/17 23:36 EST    0.05   0.44    7  345   13  17.6  38.5 1038.1 -9.9 -9.999 -99.9 -99.99 -9.99
2020/01/17 23:42 EST    0.11   0.52    7  354   11  17.4  38.5 1038.0 -9.9 -9.999 -99.9 -99.99 -9.99
2020/01/17 23:48 EST    0.19   0.63    4    8   13  17.8  38.5 1037.9 -9.9 -9.999 -99.9 -99.99 -9.99
2020/01/17 23:54 EST    0.27   0.72    6    3   11  17.6  38.5 1037.7 -9.9 -9.999 -99.9 -99.99 -9.99
2020/01/18 00:00 EST    0.37   0.84    4    3   11  17.8  38.3 1037.7 -9.9 -9.999 -99.9 -99.99 -9.99
2020/01/18 00:06 EST    0.47   0.96    7   15   11  17.4  38.5 1037.4 -9.9 -9.999 -99.9 -99.99 -9.99
2020/01/18 00:12 EST    0.58   1.08    6    9   12  17.6  38.5 1037.2 -9.9 -9.999 -99.9 -99.99 -9.99
2020/01/18 00:18 EST    0.69   1.20    7    5   12  17.4  38.5 1037.3 -9.9 -9.999 -99.9 -99.99 -9.99
2020/01/18 00:24 EST    0.81   1.31    5  352   14  17.4  38.5 1037.2 -9.9 -9.999 -99.9 -99.99 -9.99
2020/01/18 00:30 EST    0.94   1.41    5  350   12  17.4  38.5 1037.1 -9.9 -9.999 -99.9 -99.99 -9.99
2020/01/18 00:36 EST    1.07   1.55    8  354   14  17.2  38.5 1036.9 -9.9 -9.999 -99.9 -99.99 -9.99
2020/01/18 00:42 EST    1.21   1.71    7  347   13  17.4  38.5 1037.1 -9.9 -9.999 -99.9 -99.99 -9.99
2020/01/18 00:48 EST    1.35   1.87   11  341   15  16.9  38.5 1037.2 -9.9 -9.999 -99.9 -99.99 -9.99
2020/01/18 00:54 EST    1.49   2.04    9  339   12  17.1  38.5 1037.4 -9.9 -9.999 -99.9 -99.99 -9.99
2020/01/18 01:00 EST    1.64   2.19   10  338   16  16.7  38.5 1037.6 -9.9 -9.999 -99.9 -99.99 -9.99
2020/01/18 01:06 EST    1.79   2.36   11  320   14  16.7  38.5 1037.4 -9.9 -9.999 -99.9 -99.99 -9.99
2020/01/18 01:12 EST    1.94   2.51    7  346   12  16.9  38.3 1037.2 -9.9 -9.999 -99.9 -99.99 -9.99
2020/01/18 01:18 EST    2.09   2.66    8  355   15  16.9  38.3 1037.2 -9.9 -9.999 -99.9 -99.99 -9.99
2020/01/18 01:24 EST    2.25   2.80   11  335   15  16.9  38.3 1037.3 -9.9 -9.999 -99.9 -99.99 -9.99
2020/01/18 01:30 EST    2.40   2.93   10  339   15  16.7  38.3 1037.3 -9.9 -9.999 -99.9 -99.99 -9.99
2020/01/18 01:36 EST    2.55   3.07   11  340   15  16.7  38.3 1037.3 -9.9 -9.999 -99.9 -99.99 -9.99
2020/01/18 01:42 EST    2.71   3.23   10  340   15  16.7  38.3 1037.3 -9.9 -9.999 -99.9 -99.99 -9.99
2020/01/18 01:48 EST    2.86   3.39    7  340   15  16.7  38.3 1037.5 -9.9 -9.999 -99.9 -99.99 -9.99
2020/01/18 01:54 EST    3.02   3.56   10  334   13  16.9  38.1 1037.4 -9.9 -9.999 -99.9 -99.99 -9.99
2020/01/18 02:00 EST    3.17   3.71    8  344   15  16.7  38.1 1037.4 -9.9 -9.999 -99.9 -99.99 -9.99
2020/01/18 02:06 EST    3.32   3.89    3  347    9  17.1  38.1 1037.5 -9.9 -9.999 -99.9 -99.99 -9.99
2020/01/18 02:12 EST    3.47   4.08    5   14    9  17.1  38.1 1037.5 -9.9 -9.999 -99.9 -99.99 -9.99
2020/01/18 02:18 EST    3.62   4.24    4  338   11  16.9  38.1 1037.3 -9.9 -9.999 -99.9 -99.99 -9.99
2020/01/18 02:24 EST    3.77   4.38    3    9    8  17.2  38.1 1037.1 -9.9 -9.999 -99.9 -99.99 -9.99
2020/01/18 02:30 EST    3.92   4.51    4   12    9  17.2  37.9 1037.0 -9.9 -9.999 -99.9 -99.99 -9.99
2020/01/18 02:36 EST    4.06   4.63    3   19    7  16.9  37.9 1036.9 -9.9 -9.999 -99.9 -99.99 -9.99
2020/01/18 02:42 EST    4.21   4.74    3   11    8  17.1  37.9 1037.0 -9.9 -9.999 -99.9 -99.99 -9.99
2020/01/18 02:48 EST    4.35   4.87    3  360    9  17.1  37.9 1037.0 -9.9 -9.999 -99.9 -99.99 -9.99
2020/01/18 02:54 EST    4.49   5.00    3    2    7  17.2  37.9 1037.2 -9.9 -9.999 -99.9 -99.99 -9.99
2020/01/18 03:00 EST    4.63   5.15    4  355    7  16.9  37.9 1037.3 -9.9 -9.999 -99.9 -99.99 -9.99
2020/01/18 03:06 EST    4.76   5.29    4  347    9  16.9  38.1 1037.4 -9.9 -9.999 -99.9 -99.99 -9.99
2020/01/18 03:12 EST    4.90   5.42    8  341   11  16.9  38.3 1037.1 -9.9 -9.999 -99.9 -99.99 -9.99
2020/01/18 03:18 EST    5.03   5.55    5    9    9  17.1  38.5 1036.9 -9.9 -9.999 -99.9 -99.99 -9.99
2020/01/18 03:24 EST    5.16   5.72    5  348   10  17.1  38.5 1036.8 -9.9 -9.999 -99.9 -99.99 -9.99
2020/01/18 03:30 EST    5.28   5.89    4  357   10  17.1  38.5 1036.6 -9.9 -9.999 -99.9 -99.99 -9.99
2020/01/18 03:36 EST    5.40   6.03    2   48    7  17.1  38.5 1036.6 -9.9 -9.999 -99.9 -99.99 -9.99
2020/01/18 03:42 EST    5.52   6.13    2  343    7  17.2  38.7 1036.3 -9.9 -9.999 -99.9 -99.99 -9.99
2020/01/18 03:48 EST    5.63   6.23    4  355    8  16.9  38.5 1036.4 -9.9 -9.999 -99.9 -99.99 -9.99
2020/01/18 03:54 EST    5.74   6.35    4  342   10  17.1  38.5 1036.4 -9.9 -9.999 -99.9 -99.99 -9.99
2020/01/18 04:00 EST    5.85   6.45    4  340    9  17.1  38.5 1036.3 -9.9 -9.999 -99.9 -99.99 -9.99
2020/01/18 04:06 EST    5.95   6.56    3  349    7  17.2  38.7 1036.4 -9.9 -9.999 -99.9 -99.99 -9.99
2020/01/18 04:12 EST    6.04   6.64    4  351    8  16.9  38.7 1036.3 -9.9 -9.999 -99.9 -99.99 -9.99
2020/01/18 04:18 EST    6.13   6.73    5  352    9  16.7  38.7 1036.3 -9.9 -9.999 -99.9 -99.99 -9.99
2020/01/18 04:24 EST    6.21   6.81    4  353    6  17.1  38.5 1036.4 -9.9 -9.999 -99.9 -99.99 -9.99
2020/01/18 04:30 EST    6.28   6.91    5  333    8  17.1  38.5 1036.2 -9.9 -9.999 -99.9 -99.99 -9.99
2020/01/18 04:36 EST    6.34   6.97    2   22    8  17.1  38.7 1036.2 -9.9 -9.999 -99.9 -99.99 -9.99
2020/01/18 04:42 EST    6.40   7.02    3    2    8  16.9  38.7 1036.1 -9.9 -9.999 -99.9 -99.99 -9.99
2020/01/18 04:48 EST    6.45   7.07    3  339    7  17.1  38.8 1036.1 -9.9 -9.999 -99.9 -99.99 -9.99
2020/01/18 04:54 EST    6.49   7.14    4  346    8  16.9  38.8 1036.0 -9.9 -9.999 -99.9 -99.99 -9.99
2020/01/18 05:00 EST    6.52   7.19    4  358   10  16.7  38.8 1036.1 -9.9 -9.999 -99.9 -99.99 -9.99
2020/01/18 05:06 EST    6.54   7.23    5  347    9  16.7  38.8 1036.1 -9.9 -9.999 -99.9 -99.99 -9.99
2020/01/18 05:12 EST    6.55   7.27    6  339    7  16.9  38.8 1036.2 -9.9 -9.999 -99.9 -99.99 -9.99
2020/01/18 05:18 EST    6.56   7.29    4    4    9  16.9  38.8 1036.2 -9.9 -9.999 -99.9 -99.99 -9.99
2020/01/18 05:24 EST    6.55   7.27    3    5    7  17.4  38.8 1036.1 -9.9 -9.999 -99.9 -99.99 -9.99
2020/01/18 05:30 EST    6.53   7.22    3   16    8  17.1  38.8 1036.0 -9.9 -9.999 -99.9 -99.99 -9.99
2020/01/18 05:36 EST    6.50   7.19    4  347    7  16.9  38.8 1036.0 -9.9 -9.999 -99.9 -99.99 -9.99
2020/01/18 05:42 EST    6.47   7.14    6  339    8  16.9  39.0 1036.3 -9.9 -9.999 -99.9 -99.99 -9.99
2020/01/18 05:48 EST    6.42   7.08    4  352    7  17.1  39.0 1036.3 -9.9 -9.999 -99.9 -99.99 -9.99
2020/01/18 05:54 EST    6.37   7.00    3  320    7  17.4  39.0 1036.3 -9.9 -9.999 -99.9 -99.99 -9.99
2020/01/18 06:00 EST    6.30   6.91    8  333    9  16.9  39.0 1036.4 -9.9 -9.999 -99.9 -99.99 -9.99
2020/01/18 06:06 EST    6.23   6.83    4  347    9  17.1  39.0 1036.3 -9.9 -9.999 -99.9 -99.99 -9.99
2020/01/18 06:12 EST    6.15   6.77    4    0    8  17.1  39.0 1036.3 -9.9 -9.999 -99.9 -99.99 -9.99
2020/01/18 06:18 EST    6.06   6.72    3  350    6  17.1  38.8 1036.2 -9.9 -9.999 -99.9 -99.99 -9.99
2020/01/18 06:24 EST    5.97   6.64    4  345    6  17.1  38.8 1036.2 -9.9 -9.999 -99.9 -99.99 -9.99
2020/01/18 06:30 EST    5.86   6.53    4  342    8  17.1  38.8 1036.2 -9.9 -9.999 -99.9 -99.99 -9.99
2020/01/18 06:36 EST    5.76   6.41    6  341    8  17.1  38.8 1036.1 -9.9 -9.999 -99.9 -99.99 -9.99
2020/01/18 06:42 EST    5.64   6.28    3  344    7  17.2  38.8 1036.2 -9.9 -9.999 -99.9 -99.99 -9.99
2020/01/18 06:48 EST    5.52   6.17    2  340    7  17.6  38.8 1036.0 -9.9 -9.999 -99.9 -99.99 -9.99
2020/01/18 06:54 EST    5.40   6.02    2  358    5  17.4  38.8 1035.9 -9.9 -9.999 -99.9 -99.99 -9.99
2020/01/18 07:00 EST    5.27   5.88    3  357    6  17.6  39.0 1035.8 -9.9 -9.999 -99.9 -99.99 -9.99
2020/01/18 07:06 EST    5.14   5.75    5  330    6  17.2  39.0 1035.7 -9.9 -9.999 -99.9 -99.99 -9.99
2020/01/18 07:12 EST    5.01   5.62    2   10    8  17.6  39.0 1035.6 -9.9 -9.999 -99.9 -99.99 -9.99
2020/01/18 07:18 EST    4.87   5.50    2  342    6  17.2  39.0 1035.4 -9.9 -9.999 -99.9 -99.99 -9.99
2020/01/18 07:24 EST    4.73   5.36    3    1    7  17.2  39.0 1035.3 -9.9 -9.999 -99.9 -99.99 -9.99
2020/01/18 07:30 EST    4.59   5.23    1   23    6  17.8  39.0 1035.1 -9.9 -9.999 -99.9 -99.99 -9.99
2020/01/18 07:36 EST    4.45   5.07    3  355    7  17.4  39.0 1035.2 -9.9 -9.999 -99.9 -99.99 -9.99
2020/01/18 07:42 EST    4.31   4.92    3   22    6  17.6  39.0 1035.0 -9.9 -9.999 -99.9 -99.99 -9.99
2020/01/18 07:48 EST    4.17   4.77    1   30    4  17.8  39.0 1035.1 -9.9 -9.999 -99.9 -99.99 -9.99
2020/01/18 07:54 EST    4.02   4.63    1    1    5  17.8  39.0 1035.3 -9.9 -9.999 -99.9 -99.99 -9.99
2020/01/18 08:00 EST    3.88   4.51    4  312    6  18.0  39.0 1035.4 -9.9 -9.999 -99.9 -99.99 -9.99
2020/01/18 08:06 EST    3.74   4.38    4  309    5  17.6  39.0 1035.2 -9.9 -9.999 -99.9 -99.99 -9.99
2020/01/18 08:12 EST    3.59   4.25    4  302    6  17.8  39.0 1035.2 -9.9 -9.999 -99.9 -99.99 -9.99
2020/01/18 08:18 EST    3.45   4.10    4  303    7  18.0  39.0 1035.0 -9.9 -9.999 -99.9 -99.99 -9.99
2020/01/18 08:24 EST    3.30   3.95    4  308    7  17.8  39.0 1034.6 -9.9 -9.999 -99.9 -99.99 -9.99
2020/01/18 08:30 EST    3.16   3.83    3  354    5  17.8  39.0 1034.4 -9.9 -9.999 -99.9 -99.99 -9.99
2020/01/18 08:36 EST    3.02   3.69    3  327    7  17.8  39.0 1034.4 -9.9 -9.999 -99.9 -99.99 -9.99
2020/01/18 08:42 EST    2.88   3.57    3  321    5  18.1  39.0 1034.3 -9.9 -9.999 -99.9 -99.99 -9.99
2020/01/18 08:48 EST    2.74   3.45    4  335    6  18.0  39.0 1034.1 -9.9 -9.999 -99.9 -99.99 -9.99
2020/01/18 08:54 EST    2.59   3.32    2  308    4  18.3  39.0 1034.0 -9.9 -9.999 -99.9 -99.99 -9.99
2020/01/18 09:00 EST    2.45   3.23    0  352    4  18.3  39.0 1033.9 -9.9 -9.999 -99.9 -99.99 -9.99
2020/01/18 09:06 EST    2.31   3.11    1   86    3  18.7  39.0 1033.6 -9.9 -9.999 -99.9 -99.99 -9.99
2020/01/18 09:12 EST    2.18   2.97    2   83    4  18.9  39.0 1033.4 -9.9 -9.999 -99.9 -99.99 -9.99
2020/01/18 09:18 EST    2.04   2.82    1   62    4  19.0  39.0 1033.3 -9.9 -9.999 -99.9 -99.99 -9.99
2020/01/18 09:24 EST    1.90   2.66    3   80    4  18.7  39.0 1033.2 -9.9 -9.999 -99.9 -99.99 -9.99
2020/01/18 09:30 EST    1.77   2.54    1   39    3  19.0  39.0 1033.0 -9.9 -9.999 -99.9 -99.99 -9.99
2020/01/18 09:36 EST    1.63   2.41    2  108    4  18.7  39.0 1033.0 -9.9 -9.999 -99.9 -99.99 -9.99
2020/01/18 09:42 EST    1.50   2.27    0   73    2  19.2  39.0 1032.9 -9.9 -9.999 -99.9 -99.99 -9.99
2020/01/18 09:48 EST    1.37   2.16    2  209    2  19.4  39.0 1032.9 -9.9 -9.999 -99.9 -99.99 -9.99
2020/01/18 09:54 EST    1.24   2.05    2  154    3  19.2  39.0 1032.8 -9.9 -9.999 -99.9 -99.99 -9.99
2020/01/18 10:00 EST    1.12   1.95    1  161    3  19.6  39.0 1032.7 -9.9 -9.999 -99.9 -99.99 -9.99
2020/01/18 10:06 EST    1.00   1.84    1  121    3  19.6  39.0 1032.4 -9.9 -9.999 -99.9 -99.99 -9.99
2020/01/18 10:12 EST    0.88   1.70    3  130    6  19.4  39.0 1032.2 -9.9 -9.999 -99.9 -99.99 -9.99
2020/01/18 10:18 EST    0.77   1.53    3  154    6  19.8  38.8 1032.4 -9.9 -9.999 -99.9 -99.99 -9.99
2020/01/18 10:24 EST    0.67   1.41    2  144    4  19.8  38.7 1032.4 -9.9 -9.999 -99.9 -99.99 -9.99
2020/01/18 10:30 EST    0.56   1.34    2  170    4  19.9  38.7 1032.0 -9.9 -9.999 -99.9 -99.99 -9.99
2020/01/18 10:36 EST    0.47   1.25    1  103    5  20.3  38.7 1032.0 -9.9 -9.999 -99.9 -99.99 -9.99
2020/01/18 10:42 EST    0.38   1.14    0  151    3  20.7  38.7 1032.0 -9.9 -9.999 -99.9 -99.99 -9.99
2020/01/18 10:48 EST    0.30   1.05    1  223    3  20.3  38.7 1032.2 -9.9 -9.999 -99.9 -99.99 -9.99
2020/01/18 10:54 EST    0.22   0.95    3  190    4  20.7  38.7 1032.2 -9.9 -9.999 -99.9 -99.99 -9.99
2020/01/18 11:00 EST    0.15   0.88    2  200    5  20.5  38.7 1031.9 -9.9 -9.999 -99.9 -99.99 -9.99
2020/01/18 11:06 EST    0.10   0.90    2  160    3  20.7  38.8 1031.8 -9.9 -9.999 -99.9 -99.99 -9.99
2020/01/18 11:12 EST    0.05   0.89    2  218    5  21.2  38.8 1031.9 -9.9 -9.999 -99.9 -99.99 -9.99
2020/01/18 11:18 EST    0.00   0.83    2  208    5  21.4  38.8 1031.6 -9.9 -9.999 -99.9 -99.99 -9.99
2020/01/18 11:24 EST   -0.03   0.83    3  194    4  21.4  38.8 1031.5 -9.9 -9.999 -99.9 -99.99 -9.99
2020/01/18 11:30 EST   -0.05   0.76    4  193    6  21.2  38.8 1031.3 -9.9 -9.999 -99.9 -99.99 -9.99
2020/01/18 11:36 EST   -0.06   0.74    2  174    4  21.0  38.8 1031.1 -9.9 -9.999 -99.9 -99.99 -9.99
2020/01/18 11:42 EST   -0.07   0.73    3  240    4  20.8  38.8 1031.0 -9.9 -9.999 -99.9 -99.99 -9.99
2020/01/18 11:48 EST   -0.06   0.72    3  188    4  20.8  38.8 1030.8 -9.9 -9.999 -99.9 -99.99 -9.99
2020/01/18 11:54 EST   -0.04   0.70    1  182    4  21.2  38.8 1030.5 -9.9 -9.999 -99.9 -99.99 -9.99
2020/01/18 12:00 EST   -0.02   0.68    2  217    4  21.4  38.8 1030.5 -9.9 -9.999 -99.9 -99.99 -9.99
2020/01/18 12:06 EST    0.02   0.70    2  236    4  21.4  38.8 1030.2 -9.9 -9.999 -99.9 -99.99 -9.99
2020/01/18 12:12 EST    0.06   0.77    1  239    2  21.7  38.7 1029.8 -9.9 -9.999 -99.9 -99.99 -9.99
2020/01/18 12:18 EST    0.11   0.82    1  203    2  21.7  38.7 1029.8 -9.9 -9.999 -99.9 -99.99 -9.99
2020/01/18 12:24 EST    0.18   0.86    2  241    3  21.6  38.7 1029.7 -9.9 -9.999 -99.9 -99.99 -9.99
2020/01/18 12:30 EST    0.25   0.94    1  200    2  22.1  38.5 1029.6 -9.9 -9.999 -99.9 -99.99 -9.99
2020/01/18 12:36 EST    0.32   1.04    4  192    6  22.6  38.5 1029.4 -9.9 -9.999 -99.9 -99.99 -9.99
2020/01/18 12:42 EST    0.41   1.13    4  151    6  22.3  38.5 1029.2 -9.9 -9.999 -99.9 -99.99 -9.99
2020/01/18 12:48 EST    0.50   1.27    3  209    4  22.8  38.3 1029.1 -9.9 -9.999 -99.9 -99.99 -9.99
2020/01/18 12:54 EST    0.59   1.36    4  180    5  22.6  38.3 1029.0 -9.9 -9.999 -99.9 -99.99 -9.99
2020/01/18 13:00 EST    0.70   1.45    3  180    5  22.8  38.1 1029.0 -9.9 -9.999 -99.9 -99.99 -9.99
2020/01/18 13:06 EST    0.80   1.51    5  174    8  22.8  37.9 1028.8 -9.9 -9.999 -99.9 -99.99 -9.99
2020/01/18 13:12 EST    0.92   1.63    4  197    7  23.4  37.8 1028.6 -9.9 -9.999 -99.9 -99.99 -9.99
2020/01/18 13:18 EST    1.03   1.80    4  147    6  23.4  37.6 1028.4 -9.9 -9.999 -99.9 -99.99 -9.99
2020/01/18 13:24 EST    1.15   1.94    5  177    7  23.4  37.6 1028.3 -9.9 -9.999 -99.9 -99.99 -9.99
2020/01/18 13:30 EST    1.27   2.03    3  208    6  23.9  37.4 1028.2 -9.9 -9.999 -99.9 -99.99 -9.99
2020/01/18 13:36 EST    1.40   2.10    4  168    5  23.9  37.4 1028.1 -9.9 -9.999 -99.9 -99.99 -9.99
2020/01/18 13:42 EST    1.53   2.20    6  186    8  24.3  37.4 1027.9 -9.9 -9.999 -99.9 -99.99 -9.99
2020/01/18 13:48 EST    1.65   2.35    5  207    7  24.4  37.4 1027.9 -9.9 -9.999 -99.9 -99.99 -9.99
2020/01/18 13:54 EST    1.78   2.50    4  226    7  24.4  37.4 1027.7 -9.9 -9.999 -99.9 -99.99 -9.99
2020/01/18 14:00 EST    1.91   2.66    4  235    7  24.4  37.4 1027.6 -9.9 -9.999 -99.9 -99.99 -9.99
2020/01/18 14:06 EST    2.05   2.79    3  249    6  24.1  37.4 1027.4 -9.9 -9.999 -99.9 -99.99 -9.99
2020/01/18 14:12 EST    2.18   2.94    4  244    6  24.1  37.2 1027.3 -9.9 -9.999 -99.9 -99.99 -9.99
2020/01/18 14:18 EST    2.31   3.11    3  251    5  24.4  37.2 1027.3 -9.9 -9.999 -99.9 -99.99 -9.99
2020/01/18 14:24 EST    2.44   3.26    4  240    6  23.4  37.2 1027.1 -9.9 -9.999 -99.9 -99.99 -9.99
2020/01/18 14:30 EST    2.57   3.38    4  188    5  23.4  37.2 1027.0 -9.9 -9.999 -99.9 -99.99 -9.99
2020/01/18 14:36 EST    2.71   3.49    4  215    6  22.8  37.2 1026.9 -9.9 -9.999 -99.9 -99.99 -9.99
2020/01/18 14:42 EST    2.84   3.60    4  168    5  22.6  37.4 1026.7 -9.9 -9.999 -99.9 -99.99 -9.99
2020/01/18 14:48 EST    2.97   3.73    2  233    5  22.5  37.6 1026.5 -9.9 -9.999 -99.9 -99.99 -9.99
2020/01/18 14:54 EST    3.10   3.84    3  164    5  22.8  37.8 1026.3 -9.9 -9.999 -99.9 -99.99 -9.99
2020/01/18 15:00 EST    3.23   3.94    3  184    4  22.5  37.8 1026.0 -9.9 -9.999 -99.9 -99.99 -9.99
2020/01/18 15:06 EST    3.36   4.07    3  126    4  22.1  37.9 1025.8 -9.9 -9.999 -99.9 -99.99 -9.99
2020/01/18 15:12 EST    3.49   4.18    4  116    5  22.1  37.9 1025.4 -9.9 -9.999 -99.9 -99.99 -9.99
2020/01/18 15:18 EST    3.61   4.32    3  114    5  22.1  37.9 1025.1 -9.9 -9.999 -99.9 -99.99 -9.99
2020/01/18 15:24 EST    3.74   4.41    4  117    6  21.9  37.9 1024.9 -9.9 -9.999 -99.9 -99.99 -9.99
2020/01/18 15:30 EST    3.87   4.49    3  117    5  21.9  38.1 1024.8 -9.9 -9.999 -99.9 -99.99 -9.99
2020/01/18 15:36 EST    3.99   4.61    3  103    5  21.9  38.3 1024.8 -9.9 -9.999 -99.9 -99.99 -9.99
2020/01/18 15:42 EST    4.11   4.75    3  104    5  21.9  38.3 1024.6 -9.9 -9.999 -99.9 -99.99 -9.99
2020/01/18 15:48 EST    4.23   4.86    4  108    6  22.1  38.1 1024.4 -9.9 -9.999 -99.9 -99.99 -9.99
2020/01/18 15:54 EST    4.35   5.00    1   99    5  22.1  38.1 1024.2 -9.9 -9.999 -99.9 -99.99 -9.99
2020/01/18 16:00 EST    4.47   5.12    2   95    4  22.3  38.3 1023.9 -9.9 -9.999 -99.9 -99.99 -9.99
2020/01/18 16:06 EST    4.58   5.22    4  113    5  22.3  38.3 1023.6 -9.9 -9.999 -99.9 -99.99 -9.99
2020/01/18 16:12 EST    4.69   5.34    3  106    5  22.3  38.3 1023.2 -9.9 -9.999 -99.9 -99.99 -9.99
2020/01/18 16:18 EST    4.80   5.44    2   88    4  22.5  38.5 1022.9 -9.9 -9.999 -99.9 -99.99 -9.99
2020/01/18 16:24 EST    4.90   5.54    2   86    4  22.5  38.5 1022.8 -9.9 -9.999 -99.9 -99.99 -9.99
2020/01/18 16:30 EST    5.00   5.62    2   92    5  22.5  38.5 1022.5 -9.9 -9.999 -99.9 -99.99 -9.99
2020/01/18 16:36 EST    5.10   5.70    4  109    5  22.5  38.5 1022.1 -9.9 -9.999 -99.9 -99.99 -9.99
2020/01/18 16:42 EST    5.18   5.78    3  100    5  22.6  38.5 1021.8 -9.9 -9.999 -99.9 -99.99 -9.99
2020/01/18 16:48 EST    5.27   5.86    4  108    6  22.6  38.7 1021.7 -9.9 -9.999 -99.9 -99.99 -9.99
2020/01/18 16:54 EST    5.34   5.95    4  110    7  22.8  38.7 1021.7 -9.9 -9.999 -99.9 -99.99 -9.99
2020/01/18 17:00 EST    5.41   6.07    3  107    6  23.0  38.7 1021.5 -9.9 -9.999 -99.9 -99.99 -9.99
2020/01/18 17:06 EST    5.47   6.18    2  112    5  23.0  38.7 1021.2 -9.9 -9.999 -99.9 -99.99 -9.99
2020/01/18 17:12 EST    5.53   6.29    4  121    5  23.0  38.7 1020.9 -9.9 -9.999 -99.9 -99.99 -9.99
2020/01/18 17:18 EST    5.58   6.34    4  111    7  23.0  38.7 1020.6 -9.9 -9.999 -99.9 -99.99 -9.99
2020/01/18 17:24 EST    5.62   6.37    5   97    7  23.2  38.7 1020.2 -9.9 -9.999 -99.9 -99.99 -9.99
2020/01/18 17:30 EST    5.65   6.39    2  116    6  23.5  38.7 1019.9 -9.9 -9.999 -99.9 -99.99 -9.99
2020/01/18 17:36 EST    5.67   6.39    3  106    5  23.9  38.7 1019.6 -9.9 -9.999 -99.9 -99.99 -9.99
2020/01/18 17:42 EST    5.68   6.41    3  115    5  24.4  38.7 1019.4 -9.9 -9.999 -99.9 -99.99 -9.99
2020/01/18 17:48 EST    5.68   6.43    2  118    5  25.2  38.7 1019.4 -9.9 -9.999 -99.9 -99.99 -9.99
2020/01/18 17:54 EST    5.68   6.45    3  116    4  25.7  38.7 1019.2 -9.9 -9.999 -99.9 -99.99 -9.99
2020/01/18 18:00 EST    5.66   6.45    3  127    7  27.3  38.7 1019.0 -9.9 -9.999 -99.9 -99.99 -9.99
2020/01/18 18:06 EST    5.64   6.46    5  141    9  28.0  38.7 1018.7 -9.9 -9.999 -99.9 -99.99 -9.99
2020/01/18 18:12 EST    5.61   6.46    6  140   11  28.6  38.7 1018.4 -9.9 -9.999 -99.9 -99.99 -9.99
2020/01/18 18:18 EST    5.56   6.45    5  139    9  28.9  38.7 1018.3 -9.9 -9.999 -99.9 -99.99 -9.99
2020/01/18 18:24 EST    5.51   6.40    7  140   10  29.5  38.7 1018.3 -9.9 -9.999 -99.9 -99.99 -9.99
2020/01/18 18:30 EST    5.46   6.33    7  146   11  29.8  38.7 1018.2 -9.9 -9.999 -99.9 -99.99 -9.99
2020/01/18 18:36 EST    5.39   6.27    9  151   13  30.2  38.7 1017.8 -9.9 -9.999 -99.9 -99.99 -9.99
2020/01/18 18:42 EST    5.32   6.21    9  160   12  30.9  38.7 1017.6 -9.9 -9.999 -99.9 -99.99 -9.99
2020/01/18 18:48 EST    5.24   6.16   11  167   13  31.5  38.7 1017.3 -9.9 -9.999 -99.9 -99.99 -9.99
2020/01/18 18:54 EST    5.15   6.07   11  164   14  31.6  38.7 1017.0 -9.9 -9.999 -99.9 -99.99 -9.99
2020/01/18 19:00 EST    5.06   6.01   11  167   16  31.8  38.7 1016.8 -9.9 -9.999 -99.9 -99.99 -9.99
2020/01/18 19:06 EST    4.96   5.92    9  165   13  32.2  38.7 1016.5 -9.9 -9.999 -99.9 -99.99 -9.99
2020/01/18 19:12 EST    4.86   5.85   10  167   12  32.4  38.7 1016.1 -9.9 -9.999 -99.9 -99.99 -9.99
2020/01/18 19:18 EST    4.75   5.76    8  165   13  32.5  38.7 1015.7 -9.9 -9.999 -99.9 -99.99 -9.99
2020/01/18 19:24 EST    4.64   5.67    8  168   11  32.7  38.7 1015.8 -9.9 -9.999 -99.9 -99.99 -9.99
2020/01/18 19:30 EST    4.53   5.55   10  174   12  32.9  38.7 1015.5 -9.9 -9.999 -99.9 -99.99 -9.99
2020/01/18 19:36 EST    4.41   5.43    9  177   12  32.9  38.5 1015.3 -9.9 -9.999 -99.9 -99.99 -9.99
2020/01/18 19:42 EST    4.29   5.28    9  172   12  33.1  38.5 1015.0 -9.9 -9.999 -99.9 -99.99 -9.99
2020/01/18 19:48 EST    4.17   5.14    9  170   12  32.9  38.5 1014.8 -9.9 -9.999 -99.9 -99.99 -9.99
2020/01/18 19:54 EST    4.04   5.03    9  172   11  33.1  38.5 1014.6 -9.9 -9.999 -99.9 -99.99 -9.99
2020/01/18 20:00 EST    3.92   4.90    9  175   10  33.1  38.5 1014.4 -9.9 -9.999 -99.9 -99.99 -9.99
2020/01/18 20:06 EST    3.79   4.78    9  169   12  33.1  38.5 1013.9 -9.9 -9.999 -99.9 -99.99 -9.99
2020/01/18 20:12 EST    3.67   4.67   10  169   13  33.1  38.5 1013.7 -9.9 -9.999 -99.9 -99.99 -9.99
2020/01/18 20:18 EST    3.54   4.56    9  169   12  33.1  38.5 1013.5 -9.9 -9.999 -99.9 -99.99 -9.99
2020/01/18 20:24 EST    3.41   4.47   10  170   12  33.3  38.7 1013.3 -9.9 -9.999 -99.9 -99.99 -9.99
2020/01/18 20:30 EST    3.29   4.35    9  173   13  33.3  38.7 1013.3 -9.9 -9.999 -99.9 -99.99 -9.99
2020/01/18 20:36 EST    3.16   4.21    9  180   12  33.6  38.5 1013.2 -9.9 -9.999 -99.9 -99.99 -9.99
2020/01/18 20:42 EST    3.03   4.07   11  177   13  33.6  38.5 1013.0 -9.9 -9.999 -99.9 -99.99 -9.99
2020/01/18 20:48 EST    2.91   3.94   11  180   14  33.8  38.5 1012.9 -9.9 -9.999 -99.9 -99.99 -9.99
2020/01/18 20:54 EST    2.78   3.82   11  182   13  34.0  38.5 1012.7 -9.9 -9.999 -99.9 -99.99 -9.99
2020/01/18 21:00 EST    2.65   3.70   11  183   14  34.0  38.3 1012.5 -9.9 -9.999 -99.9 -99.99 -9.99
2020/01/18 21:06 EST    2.53   3.61   11  187   13  34.2  38.3 1012.4 -9.9 -9.999 -99.9 -99.99 -9.99
2020/01/18 21:12 EST    2.40   3.52   13  190   15  34.3  38.3 1012.1 -9.9 -9.999 -99.9 -99.99 -9.99
2020/01/18 21:18 EST    2.28   3.42   13  190   15  34.3  38.1 1011.9 -9.9 -9.999 -99.9 -99.99 -9.99
2020/01/18 21:24 EST    2.15   3.29   12  195   15  34.5  38.1 1011.7 -9.9 -9.999 -99.9 -99.99 -9.99
2020/01/18 21:30 EST    2.03   3.13   12  196   13  34.7  38.1 1011.5 -9.9 -9.999 -99.9 -99.99 -9.99
2020/01/18 21:36 EST    1.91   3.00   11  198   12  34.7  38.1 1011.1 -9.9 -9.999 -99.9 -99.99 -9.99
2020/01/18 21:42 EST    1.78   2.86    8  200   11  34.9  38.1 1010.9 -9.9 -9.999 -99.9 -99.99 -9.99
2020/01/18 21:48 EST    1.66   2.76    7  203    9  34.9  38.1 1010.6 -9.9 -9.999 -99.9 -99.99 -9.99
2020/01/18 21:54 EST    1.54   2.65    6  206    7  35.2  37.9 1010.4 -9.9 -9.999 -99.9 -99.99 -9.99
2020/01/18 22:00 EST    1.43   2.55    5  205    6  35.2  37.9 1010.2 -9.9 -9.999 -99.9 -99.99 -9.99
2020/01/18 22:06 EST    1.31   2.47    4  212    6  35.4  37.9 1010.0 -9.9 -9.999 -99.9 -99.99 -9.99
2020/01/18 22:12 EST    1.19   2.39    4  194    5  35.6  37.9 1009.7 -9.9 -9.999 -99.9 -99.99 -9.99
2020/01/18 22:18 EST    1.08   2.31    4  194    5  35.8  37.9 1009.4 -9.9 -9.999 -99.9 -99.99 -9.99
2020/01/18 22:24 EST    0.97   2.25    4  195    5  35.8  37.8 1009.0 -9.9 -9.999 -99.9 -99.99 -9.99
2020/01/18 22:30 EST    0.87   2.19    3  148    4  35.2  37.8 1008.8 -9.9 -9.999 -99.9 -99.99 -9.99
2020/01/18 22:36 EST    0.77   2.13    3  148    4  35.1  37.8 1008.8 -9.9 -9.999 -99.9 -99.99 -9.99
2020/01/18 22:42 EST    0.67   2.07    3  162    4  34.9  37.8 1008.7 -9.9 -9.999 -99.9 -99.99 -9.99
2020/01/18 22:48 EST    0.57   1.99    3  170    4  35.1  37.8 1008.5 -9.9 -9.999 -99.9 -99.99 -9.99
2020/01/18 22:54 EST    0.49   1.92    3  140    4  35.1  37.8 1008.4 -9.9 -9.999 -99.9 -99.99 -9.99
2020/01/18 23:00 EST    0.40   1.84    2  155    3  35.2  37.8 1008.3 -9.9 -9.999 -99.9 -99.99 -9.99
2020/01/18 23:06 EST    0.33   1.77    2  154    4  35.4  37.8 1008.1 -9.9 -9.999 -99.9 -99.99 -9.99
2020/01/18 23:12 EST    0.26   1.70    1  204    2  35.6  37.8 1008.0 -9.9 -9.999 -99.9 -99.99 -9.99
2020/01/18 23:18 EST    0.20   1.63    3  256    3  36.1  37.9 1007.8 -9.9 -9.999 -99.9 -99.99 -9.99
2020/01/18 23:24 EST    0.14   1.58    3  274    4  36.0  37.9 1007.7 -9.9 -9.999 -99.9 -99.99 -9.99
2020/01/18 23:30 EST    0.10   1.53    1  334    3  35.6  37.8 1007.2 -9.9 -9.999 -99.9 -99.99 -9.99
2020/01/18 23:36 EST    0.06   1.51    1  233    3  35.8  37.8 1007.3 -9.9 -9.999 -99.9 -99.99 -9.99
2020/01/18 23:42 EST    0.03   1.49    2  284    4  35.8  37.6 1007.5 -9.9 -9.999 -99.9 -99.99 -9.99
2020/01/18 23:48 EST    0.01   1.50    2  271    4  35.8  37.6 1007.4 -9.9 -9.999 -99.9 -99.99 -9.99
2020/01/18 23:54 EST    0.00   1.51    3  221    5  36.1  37.6 1007.0 -9.9 -9.999 -99.9 -99.99 -9.99
2020/01/19 00:00 EST   -0.00   1.53    4  228    6  36.3  37.6 1006.8 -9.9 -9.999 -99.9 -99.99 -9.99
2020/01/19 00:06 EST    0.01   1.55    5  245    7  36.7  37.6 1006.8 -9.9 -9.999 -99.9 -99.99 -9.99
2020/01/19 00:12 EST    0.03   1.59    6  233    9  36.9  37.6 1006.4 -9.9 -9.999 -99.9 -99.99 -9.99
2020/01/19 00:18 EST    0.06   1.69    9  251   11  36.9  37.4 1006.5 -9.9 -9.999 -99.9 -99.99 -9.99
2020/01/19 00:24 EST    0.09   1.75    9  248   11  36.9  37.4 1006.3 -9.9 -9.999 -99.9 -99.99 -9.99
2020/01/19 00:30 EST    0.14   1.75   10  242   12  37.0  37.4 1006.0 -9.9 -9.999 -99.9 -99.99 -9.99
2020/01/19 00:36 EST    0.20   1.77    9  242   11  37.0  37.6 1005.7 -9.9 -9.999 -99.9 -99.99 -9.99
2020/01/19 00:42 EST    0.26   1.79    9  245   12  37.0  37.6 1005.9 -9.9 -9.999 -99.9 -99.99 -9.99
2020/01/19 00:48 EST    0.34   1.79    8  251   11  37.0  37.6 1005.6 -9.9 -9.999 -99.9 -99.99 -9.99
2020/01/19 00:54 EST    0.42   1.83    8  252   10  37.0  37.6 1005.6 -9.9 -9.999 -99.9 -99.99 -9.99
2020/01/19 01:00 EST    0.51   1.87    5  255    9  36.9  37.6 1005.1 -9.9 -9.999 -99.9 -99.99 -9.99
2020/01/19 01:06 EST    0.61   1.94    6  247    8  36.9  37.6 1005.0 -9.9 -9.999 -99.9 -99.99 -9.99
2020/01/19 01:12 EST    0.71   2.06    5  257    8  36.9  37.6 1005.1 -9.9 -9.999 -99.9 -99.99 -9.99
2020/01/19 01:18 EST    0.82   2.22    6  262    7  36.7  37.6 1005.1 -9.9 -9.999 -99.9 -99.99 -9.99
2020/01/19 01:24 EST    0.94   2.39    6  267    7  36.7  37.4 1005.3 -9.9 -9.999 -99.9 -99.99 -9.99
2020/01/19 01:30 EST    1.06   2.56    7  264    9  36.7  37.4 1005.4 -9.9 -9.999 -99.9 -99.99 -9.99
2020/01/19 01:36 EST    1.18   2.72    9  263   13  36.9  37.6 1005.3 -9.9 -9.999 -99.9 -99.99 -9.99
2020/01/19 01:42 EST    1.31   2.84   11  265   15  37.0  37.6 1005.3 -9.9 -9.999 -99.9 -99.99 -9.99
2020/01/19 01:48 EST    1.45   2.95   14  262   18  37.2  37.6 1005.5 -9.9 -9.999 -99.9 -99.99 -9.99
2020/01/19 01:54 EST    1.59   3.07   15  264   19  37.2  37.6 1005.3 -9.9 -9.999 -99.9 -99.99 -9.99
2020/01/19 02:00 EST    1.72   3.18   14  255   17  37.2  37.6 1005.1 -9.9 -9.999 -99.9 -99.99 -9.99
2020/01/19 02:06 EST    1.87   3.26   12  254   16  37.0  37.6 1004.9 -9.9 -9.999 -99.9 -99.99 -9.99
2020/01/19 02:12 EST    2.01   3.33   11  255   15  36.9  37.6 1004.7 -9.9 -9.999 -99.9 -99.99 -9.99
2020/01/19 02:18 EST    2.15   3.40   10  262   14  36.7  37.6 1004.8 -9.9 -9.999 -99.9 -99.99 -9.99
2020/01/19 02:24 EST    2.30   3.53   10  261   13  36.9  37.8 1004.9 -9.9 -9.999 -99.9 -99.99 -9.99
2020/01/19 02:30 EST    2.45   3.67   13  269   17  36.9  37.8 1005.0 -9.9 -9.999 -99.9 -99.99 -9.99
2020/01/19 02:36 EST    2.59   3.81   11  268   14  36.9  37.8 1005.0 -9.9 -9.999 -99.9 -99.99 -9.99
2020/01/19 02:42 EST    2.74   3.94    9  267   15  36.7  37.8 1004.6 -9.9 -9.999 -99.9 -99.99 -9.99
2020/01/19 02:48 EST    2.89   4.09   10  266   14  36.7  37.8 1004.6 -9.9 -9.999 -99.9 -99.99 -9.99
2020/01/19 02:54 EST    3.04   4.24    8  277   11  36.7  37.8 1004.7 -9.9 -9.999 -99.9 -99.99 -9.99
2020/01/19 03:00 EST    3.18   4.38    5  279    8  36.5  37.8 1004.5 -9.9 -9.999 -99.9 -99.99 -9.99
2020/01/19 03:06 EST    3.33   4.50    6  260    8  36.5  37.8 1004.6 -9.9 -9.999 -99.9 -99.99 -9.99
2020/01/19 03:12 EST    3.48   4.62    6  253    8  36.3  37.8 1004.4 -9.9 -9.999 -99.9 -99.99 -9.99
2020/01/19 03:18 EST    3.62   4.72    6  256   10  36.3  37.8 1004.3 -9.9 -9.999 -99.9 -99.99 -9.99
2020/01/19 03:24 EST    3.77   4.83    6  257    9  36.3  37.9 1004.1 -9.9 -9.999 -99.9 -99.99 -9.99
2020/01/19 03:30 EST    3.91   4.94    6  250    8  36.3  37.9 1004.1 -9.9 -9.999 -99.9 -99.99 -9.99
2020/01/19 03:36 EST    4.06   5.06    6  250    8  36.3  37.9 1004.2 -9.9 -9.999 -99.9 -99.99 -9.99
2020/01/19 03:42 EST    4.20   5.16    6  254    9  36.1  37.9 1004.1 -9.9 -9.999 -99.9 -99.99 -9.99
2020/01/19 03:48 EST    4.34   5.27    4  264    7  36.1  37.9 1004.2 -9.9 -9.999 -99.9 -99.99 -9.99
2020/01/19 03:54 EST    4.48   5.38    4  271    6  36.1  37.8 1004.1 -9.9 -9.999 -99.9 -99.99 -9.99
2020/01/19 04:00 EST    4.62   5.46    7  275    9  36.0  37.8 1004.1 -9.9 -9.999 -99.9 -99.99 -9.99
2020/01/19 04:06 EST    4.76   5.55    6  274    9  36.1  37.8 1004.0 -9.9 -9.999 -99.9 -99.99 -9.99
2020/01/19 04:12 EST    4.90   5.68    6  270    8  36.0  37.8 1003.8 -9.9 -9.999 -99.9 -99.99 -9.99
2020/01/19 04:18 EST    5.03   5.79    5  258    8  36.0  37.8 1003.5 -9.9 -9.999 -99.9 -99.99 -9.99
2020/01/19 04:24 EST    5.16   5.89    5  257    7  36.0  37.8 1003.3 -9.9 -9.999 -99.9 -99.99 -9.99
2020/01/19 04:30 EST    5.29   6.01    5  257    7  35.8  37.9 1003.3 -9.9 -9.999 -99.9 -99.99 -9.99
2020/01/19 04:36 EST    5.41   6.12    6  252    7  35.8  37.9 1003.3 -9.9 -9.999 -99.9 -99.99 -9.99
2020/01/19 04:42 EST    5.53   6.28    5  247    6  35.8  37.9 1003.3 -9.9 -9.999 -99.9 -99.99 -9.99
2020/01/19 04:48 EST    5.65   6.39    6  257    7  36.0  37.9 1003.4 -9.9 -9.999 -99.9 -99.99 -9.99
2020/01/19 04:54 EST    5.76   6.48    7  253    8  36.0  37.9 1003.5 -9.9 -9.999 -99.9 -99.99 -9.99
2020/01/19 05:00 EST    5.87   6.57    8  245   10  36.0  37.9 1003.4 -9.9 -9.999 -99.9 -99.99 -9.99
2020/01/19 05:06 EST    5.97   6.66    6  248    8  36.0  37.9 1003.4 -9.9 -9.999 -99.9 -99.99 -9.99
2020/01/19 05:12 EST    6.06   6.75    7  251    9  36.0  38.1 1003.4 -9.9 -9.999 -99.9 -99.99 -9.99
2020/01/19 05:18 EST    6.15   6.80    6  267    7  36.0  38.1 1003.5 -9.9 -9.999 -99.9 -99.99 -9.99
2020/01/19 05:24 EST    6.23   6.87    6  270    8  35.8  38.1 1003.3 -9.9 -9.999 -99.9 -99.99 -9.99
2020/01/19 05:30 EST    6.31   6.94    7  284    8  35.8  38.1 1003.5 -9.9 -9.999 -99.9 -99.99 -9.99
2020/01/19 05:36 EST    6.38   7.00    6  276    7  35.8  38.1 1003.4 -9.9 -9.999 -99.9 -99.99 -9.99
2020/01/19 05:42 EST    6.43   7.05    6  271    7  35.8  38.1 1003.4 -9.9 -9.999 -99.9 -99.99 -9.99
2020/01/19 05:48 EST    6.48   7.11    6  269    8  36.0  37.9 1003.5 -9.9 -9.999 -99.9 -99.99 -9.99
2020/01/19 05:54 EST    6.52   7.16    6  271    9  36.0  37.9 1003.4 -9.9 -9.999 -99.9 -99.99 -9.99
2020/01/19 06:00 EST    6.55   7.21    6  273    7  36.0  37.8 1003.4 -9.9 -9.999 -99.9 -99.99 -9.99
2020/01/19 06:06 EST    6.58   7.22    5  274    6  35.8  37.6 1003.5 -9.9 -9.999 -99.9 -99.99 -9.99
2020/01/19 06:12 EST    6.59   7.19    4  260    5  35.8  37.4 1003.5 -9.9 -9.999 -99.9 -99.99 -9.99
2020/01/19 06:18 EST    6.59   7.15    4  259    5  35.8  37.4 1003.6 -9.9 -9.999 -99.9 -99.99 -9.99
2020/01/19 06:24 EST    6.58   7.12    4  275    6  35.8  37.4 1003.6 -9.9 -9.999 -99.9 -99.99 -9.99
2020/01/19 06:30 EST    6.57   7.07    2  263    4  35.6  37.4 1003.6 -9.9 -9.999 -99.9 -99.99 -9.99
2020/01/19 06:36 EST    6.54   7.01    2  249    3  35.4  37.4 1003.6 -9.9 -9.999 -99.9 -99.99 -9.99
2020/01/19 06:42 EST    6.50   6.95    1  219    2  35.2  37.4 1003.7 -9.9 -9.999 -99.9 -99.99 -9.99
2020/01/19 06:48 EST    6.46   6.90    1  229    1  35.2  37.4 1004.0 -9.9 -9.999 -99.9 -99.99 -9.99
2020/01/19 06:54 EST    6.41   6.85    3  183    4  35.2  37.4 1004.1 -9.9 -9.999 -99.9 -99.99 -9.99
2020/01/19 07:00 EST    6.34   6.79    3  174    3  34.7  37.4 1004.2 -9.9 -9.999 -99.9 -99.99 -9.99
2020/01/19 07:06 EST    6.27   6.70    1  161    2  34.9  37.4 1004.2 -9.9 -9.999 -99.9 -99.99 -9.99
2020/01/19 07:12 EST    6.20   6.59    0  255    1  34.7  37.4 1004.3 -9.9 -9.999 -99.9 -99.99 -9.99
2020/01/19 07:18 EST    6.11   6.47    1  212    2  34.7  37.6 1004.3 -9.9 -9.999 -99.9 -99.99 -9.99
2020/01/19 07:24 EST    6.02   6.35    2  237    3  35.1  37.6 1004.4 -9.9 -9.999 -99.9 -99.99 -9.99
2020/01/19 07:30 EST    5.92   6.22    2  248    3  35.1  37.6 1004.4 -9.9 -9.999 -99.9 -99.99 -9.99
2020/01/19 07:36 EST    5.82   6.09    3  265    3  35.2  37.6 1004.4 -9.9 -9.999 -99.9 -99.99 -9.99
2020/01/19 07:42 EST    5.71   5.95    2  277    3  35.2  37.6 1004.5 -9.9 -9.999 -99.9 -99.99 -9.99
2020/01/19 07:48 EST    5.59   5.81    2  298    3  35.4  37.4 1004.5 -9.9 -9.999 -99.9 -99.99 -9.99
2020/01/19 07:54 EST    5.48   5.70    2  293    3  35.4  37.4 1004.4 -9.9 -9.999 -99.9 -99.99 -9.99
2020/01/19 08:00 EST    5.35   5.60    2  312    4  35.6  37.4 1004.5 -9.9 -9.999 -99.9 -99.99 -9.99
2020/01/19 08:06 EST    5.23   5.52    2  300    3  36.1  37.4 1004.6 -9.9 -9.999 -99.9 -99.99 -9.99
2020/01/19 08:12 EST    5.10   5.42    2  295    3  36.0  37.2 1004.6 -9.9 -9.999 -99.9 -99.99 -9.99
2020/01/19 08:18 EST    4.97   5.30    2  272    3  36.1  37.2 1004.7 -9.9 -9.999 -99.9 -99.99 -9.99
2020/01/19 08:24 EST    4.84   5.16    1  270    3  36.9  37.2 1004.7 -9.9 -9.999 -99.9 -99.99 -9.99
2020/01/19 08:30 EST    4.70   5.02    2  283    3  37.2  37.2 1004.9 -9.9 -9.999 -99.9 -99.99 -9.99
2020/01/19 08:36 EST    4.57   4.87    2  272    3  37.2  37.2 1004.7 -9.9 -9.999 -99.9 -99.99 -9.99
2020/01/19 08:42 EST    4.43   4.72    2  288    3  37.2  37.2 1004.9 -9.9 -9.999 -99.9 -99.99 -9.99
2020/01/19 08:48 EST    4.29   4.58    1  296    3  37.8  37.2 1004.8 -9.9 -9.999 -99.9 -99.99 -9.99
2020/01/19 08:54 EST    4.15   4.44    3  230    4  37.8  37.2 1004.7 -9.9 -9.999 -99.9 -99.99 -9.99
2020/01/19 09:00 EST    4.01   4.30    4  231    6  37.6  37.4 1004.7 -9.9 -9.999 -99.9 -99.99 -9.99
2020/01/19 09:06 EST    3.87   4.15    3  242    5  37.6  37.4 1004.7 -9.9 -9.999 -99.9 -99.99 -9.99
2020/01/19 09:12 EST    3.73   4.00    4  235    5  37.9  37.4 1004.8 -9.9 -9.999 -99.9 -99.99 -9.99
2020/01/19 09:18 EST    3.59   3.84    6  285    7  38.7  37.6 1004.9 -9.9 -9.999 -99.9 -99.99 -9.99
2020/01/19 09:24 EST    3.44   3.69    9  297   13  40.1  37.6 1004.7 -9.9 -9.999 -99.9 -99.99 -9.99
2020/01/19 09:30 EST    3.30   3.57    8  298   11  40.3  37.6 1004.6 -9.9 -9.999 -99.9 -99.99 -9.99
2020/01/19 09:36 EST    3.16   3.46    7  301   11  41.4  37.6 1004.7 -9.9 -9.999 -99.9 -99.99 -9.99
2020/01/19 09:42 EST    3.01   3.37    8  314   11  41.7  37.6 1004.8 -9.9 -9.999 -99.9 -99.99 -9.99
2020/01/19 09:48 EST    2.87   3.25    7  296   12  41.5  37.6 1004.8 -9.9 -9.999 -99.9 -99.99 -9.99
2020/01/19 09:54 EST    2.72   3.16   10  302   13  41.0  37.6 1004.9 -9.9 -9.999 -99.9 -99.99 -9.99
2020/01/19 10:00 EST    2.58   3.02   11  307   14  41.2  37.6 1004.8 -9.9 -9.999 -99.9 -99.99 -9.99
2020/01/19 10:06 EST    2.44   2.90    6  301   14  41.2  37.6 1004.9 -9.9 -9.999 -99.9 -99.99 -9.99
2020/01/19 10:12 EST    2.29   2.75    8  300   13  41.5  37.6 1005.0 -9.9 -9.999 -99.9 -99.99 -9.99
2020/01/19 10:18 EST    2.15   2.57    9  307   12  41.7  37.6 1005.2 -9.9 -9.999 -99.9 -99.99 -9.99
2020/01/19 10:24 EST    2.00   2.40    8  295   14  41.7  37.6 1005.2 -9.9 -9.999 -99.9 -99.99 -9.99
2020/01/19 10:30 EST    1.86   2.23   10  310   16  42.1  37.6 1005.0 -9.9 -9.999 -99.9 -99.99 -9.99
2020/01/19 10:36 EST    1.72   2.09   10  292   14  42.1  37.6 1005.0 -9.9 -9.999 -99.9 -99.99 -9.99
2020/01/19 10:42 EST    1.58   1.96   12  288   19  42.1  37.6 1004.9 -9.9 -9.999 -99.9 -99.99 -9.99
2020/01/19 10:48 EST    1.45   1.85   11  292   15  42.1  37.8 1004.9 -9.9 -9.999 -99.9 -99.99 -9.99
2020/01/19 10:54 EST    1.31   1.75   10  297   14  42.3  37.8 1004.9 -9.9 -9.999 -99.9 -99.99 -9.99
2020/01/19 11:00 EST    1.18   1.67   13  297   15  42.4  37.8 1004.9 -9.9 -9.999 -99.9 -99.99 -9.99
2020/01/19 11:06 EST    1.05   1.58    9  294   19  42.3  37.8 1004.8 -9.9 -9.999 -99.9 -99.99 -9.99
2020/01/19 11:12 EST    0.93   1.46   11  295   13  42.4  37.8 1004.6 -9.9 -9.999 -99.9 -99.99 -9.99
2020/01/19 11:18 EST    0.81   1.36   12  298   16  42.6  37.9 1004.6 -9.9 -9.999 -99.9 -99.99 -9.99
2020/01/19 11:24 EST    0.69   1.26   12  289   19  42.6  37.9 1004.8 -9.9 -9.999 -99.9 -99.99 -9.99
2020/01/19 11:30 EST    0.59   1.16   13  291   19  42.4  37.9 1004.7 -9.9 -9.999 -99.9 -99.99 -9.99
2020/01/19 11:36 EST    0.48   1.07   15  299   18  42.4  37.9 1004.6 -9.9 -9.999 -99.9 -99.99 -9.99
2020/01/19 11:42 EST    0.39   0.95   14  297   19  42.4  37.9 1004.6 -9.9 -9.999 -99.9 -99.99 -9.99
2020/01/19 11:48 EST    0.30   0.87   15  287   17  42.6  37.9 1004.7 -9.9 -9.999 -99.9 -99.99 -9.99
2020/01/19 11:54 EST    0.22   0.77   12  287   15  42.6  38.1 1004.7 -9.9 -9.999 -99.9 -99.99 -9.99
2020/01/19 12:00 EST    0.15   0.68   14  289   17  42.8  38.1 1004.6 -9.9 -9.999 -99.9 -99.99 -9.99
2020/01/19 12:06 EST    0.08   0.59   18  312   21  42.8  38.1 1004.6 -9.9 -9.999 -99.9 -99.99 -9.99
2020/01/19 12:12 EST    0.03   0.53   12  317   20  42.8  38.3 1004.7 -9.9 -9.999 -99.9 -99.99 -9.99
2020/01/19 12:18 EST   -0.02   0.46   12  325   16  43.2  38.3 1004.6 -9.9 -9.999 -99.9 -99.99 -9.99
2020/01/19 12:24 EST   -0.06   0.45   10  331   15  43.2  38.3 1004.5 -9.9 -9.999 -99.9 -99.99 -9.99
2020/01/19 12:30 EST   -0.09   0.44   14  310   16  42.6  38.5 1004.5 -9.9 -9.999 -99.9 -99.99 -9.99
2020/01/19 12:36 EST   -0.10   0.46   10  306   16  42.6  38.5 1004.5 -9.9 -9.999 -99.9 -99.99 -9.99
2020/01/19 12:42 EST   -0.11   0.47    9  333   14  43.2  38.5 1004.6 -9.9 -9.999 -99.9 -99.99 -9.99
2020/01/19 12:48 EST   -0.11   0.50   10  335   12  43.5  38.5 1004.6 -9.9 -9.999 -99.9 -99.99 -9.99
2020/01/19 12:54 EST   -0.10   0.52   12  319   17  43.2  38.5 1004.5 -9.9 -9.999 -99.9 -99.99 -9.99
2020/01/19 13:00 EST   -0.08   0.54   12  341   17  43.2  38.5 1004.4 -9.9 -9.999 -99.9 -99.99 -9.99
2020/01/19 13:06 EST   -0.05   0.60   12  326   17  43.2  38.5 1004.5 -9.9 -9.999 -99.9 -99.99 -9.99
2020/01/19 13:12 EST   -0.01   0.64   15  301   18  42.4  38.7 1004.5 -9.9 -9.999 -99.9 -99.99 -9.99
2020/01/19 13:18 EST    0.04   0.68   15  309   18  42.4  38.7 1004.6 -9.9 -9.999 -99.9 -99.99 -9.99
2020/01/19 13:24 EST    0.09   0.71   14  311   18  42.6  38.7 1004.7 -9.9 -9.999 -99.9 -99.99 -9.99
2020/01/19 13:30 EST    0.16   0.76   16  301   20  42.6  38.7 1004.5 -9.9 -9.999 -99.9 -99.99 -9.99
2020/01/19 13:36 EST    0.23   0.81   18  314   21  42.6  38.7 1004.6 -9.9 -9.999 -99.9 -99.99 -9.99
2020/01/19 13:42 EST    0.30   0.90   15  331   19  42.8  38.7 1004.6 -9.9 -9.999 -99.9 -99.99 -9.99
2020/01/19 13:48 EST    0.39   0.98   16  321   18  42.4  38.7 1004.7 -9.9 -9.999 -99.9 -99.99 -9.99
2020/01/19 13:54 EST    0.48   1.11   17  318   20  42.4  38.7 1004.9 -9.9 -9.999 -99.9 -99.99 -9.99
2020/01/19 14:00 EST    0.57   1.21   16  318   20  42.4  38.8 1004.9 -9.9 -9.999 -99.9 -99.99 -9.99
2020/01/19 14:06 EST    0.67   1.32   16  319   21  42.3  38.8 1004.9 -9.9 -9.999 -99.9 -99.99 -9.99
2020/01/19 14:12 EST    0.77   1.42   16  322   21  42.3  38.8 1005.0 -9.9 -9.999 -99.9 -99.99 -9.99
2020/01/19 14:18 EST    0.88   1.52   16  326   21  42.4  38.8 1005.1 -9.9 -9.999 -99.9 -99.99 -9.99
2020/01/19 14:24 EST    0.99   1.64   15  316   21  42.3  38.8 1005.1 -9.9 -9.999 -99.9 -99.99 -9.99
2020/01/19 14:30 EST    1.11   1.77   13  328   18  42.3  38.8 1005.2 -9.9 -9.999 -99.9 -99.99 -9.99
2020/01/19 14:36 EST    1.22   1.89   14  304   17  41.7  38.8 1005.2 -9.9 -9.999 -99.9 -99.99 -9.99
2020/01/19 14:42 EST    1.34   1.99   14  303   20  41.5  38.8 1005.5 -9.9 -9.999 -99.9 -99.99 -9.99
2020/01/19 14:48 EST    1.46   2.10   10  298   19  41.4  38.8 1005.6 -9.9 -9.999 -99.9 -99.99 -9.99
2020/01/19 14:54 EST    1.58   2.18   11  300   13  41.4  38.7 1005.7 -9.9 -9.999 -99.9 -99.99 -9.99
2020/01/19 15:00 EST    1.71   2.30   14  300   17  41.2  38.8 1005.7 -9.9 -9.999 -99.9 -99.99 -9.99
2020/01/19 15:06 EST    1.83   2.42   13  307   17  41.2  38.8 1005.9 -9.9 -9.999 -99.9 -99.99 -9.99
2020/01/19 15:12 EST    1.96   2.57   11  306   15  41.4  38.8 1006.0 -9.9 -9.999 -99.9 -99.99 -9.99
2020/01/19 15:18 EST    2.09   2.75   13  299   17  41.5  39.0 1005.9 -9.9 -9.999 -99.9 -99.99 -9.99
2020/01/19 15:24 EST    2.21   2.90   16  308   20  41.5  39.0 1005.9 -9.9 -9.999 -99.9 -99.99 -9.99
2020/01/19 15:30 EST    2.34   3.04   17  319   22  41.4  39.0 1006.0 -9.9 -9.999 -99.9 -99.99 -9.99
2020/01/19 15:36 EST    2.47   3.19   17  322   21  41.0  39.0 1006.2 -9.9 -9.999 -99.9 -99.99 -9.99
2020/01/19 15:42 EST    2.60   3.33   13  326   16  41.2  38.8 1006.5 -9.9 -9.999 -99.9 -99.99 -9.99
2020/01/19 15:48 EST    2.73   3.44   16  318   21  40.8  38.7 1006.5 -9.9 -9.999 -99.9 -99.99 -9.99
2020/01/19 15:54 EST    2.86   3.56   15  325   19  41.0  38.5 1006.5 -9.9 -9.999 -99.9 -99.99 -9.99
2020/01/19 16:00 EST    2.99   3.68   15  325   19  41.0  38.3 1006.6 -9.9 -9.999 -99.9 -99.99 -9.99
2020/01/19 16:06 EST    3.12   3.79   12  312   18  40.6  38.1 1006.7 -9.9 -9.999 -99.9 -99.99 -9.99
2020/01/19 16:12 EST    3.25   3.88   15  309   17  40.5  38.1 1006.8 -9.9 -9.999 -99.9 -99.99 -9.99
2020/01/19 16:18 EST    3.39   3.99   15  315   20  40.3  37.9 1007.0 -9.9 -9.999 -99.9 -99.99 -9.99
2020/01/19 16:24 EST    3.52   4.09   13  310   17  40.3  37.9 1007.1 -9.9 -9.999 -99.9 -99.99 -9.99
2020/01/19 16:30 EST    3.65   4.21   10  304   14  40.1  37.9 1007.2 -9.9 -9.999 -99.9 -99.99 -9.99
2020/01/19 16:36 EST    3.77   4.33    8  305   12  39.9  37.9 1007.4 -9.9 -9.999 -99.9 -99.99 -9.99
2020/01/19 16:42 EST    3.90   4.48   11  297   16  39.6  37.9 1007.5 -9.9 -9.999 -99.9 -99.99 -9.99
2020/01/19 16:48 EST    4.03   4.61   11  300   13  39.6  37.9 1007.6 -9.9 -9.999 -99.9 -99.99 -9.99
2020/01/19 16:54 EST    4.15   4.70   10  302   13  39.4  37.9 1007.8 -9.9 -9.999 -99.9 -99.99 -9.99
2020/01/19 17:00 EST    4.28   4.82   11  298   15  39.2  37.9 1008.0 -9.9 -9.999 -99.9 -99.99 -9.99
2020/01/19 17:06 EST    4.40   4.92   11  303   16  39.2  37.9 1008.0 -9.9 -9.999 -99.9 -99.99 -9.99
2020/01/19 17:12 EST    4.51   4.99   11  306   18  38.8  37.9 1008.1 -9.9 -9.999 -99.9 -99.99 -9.99
2020/01/19 17:18 EST    4.63   5.07   14  307   18  38.8  37.9 1008.2 -9.9 -9.999 -99.9 -99.99 -9.99
2020/01/19 17:24 EST    4.74   5.17   13  306   19  38.7  37.9 1008.4 -9.9 -9.999 -99.9 -99.99 -9.99
2020/01/19 17:30 EST    4.84   5.27   15  317   19  38.5  37.9 1008.5 -9.9 -9.999 -99.9 -99.99 -9.99
2020/01/19 17:36 EST    4.94   5.36   15  315   20  38.3  37.9 1008.6 -9.9 -9.999 -99.9 -99.99 -9.99
2020/01/19 17:42 EST    5.04   5.49   13  321   17  38.1  37.9 1008.7 -9.9 -9.999 -99.9 -99.99 -9.99
2020/01/19 17:48 EST    5.12   5.60   12  316   18  37.9  37.9 1008.8 -9.9 -9.999 -99.9 -99.99 -9.99
2020/01/19 17:54 EST    5.21   5.74    9  310   13  37.8  37.9 1008.9 -9.9 -9.999 -99.9 -99.99 -9.99
2020/01/19 18:00 EST    5.28   5.87    8  303   11  37.4  37.9 1009.1 -9.9 -9.999 -99.9 -99.99 -9.99
2020/01/19 18:06 EST    5.35   5.95   10  301   13  37.2  37.9 1009.0 -9.9 -9.999 -99.9 -99.99 -9.99
2020/01/19 18:12 EST    5.41   5.99   14  304   16  37.0  37.9 1009.1 -9.9 -9.999 -99.9 -99.99 -9.99
2020/01/19 18:18 EST    5.46   6.04   13  306   16  37.0  37.9 1009.3 -9.9 -9.999 -99.9 -99.99 -9.99
2020/01/19 18:24 EST    5.50   6.09   10  305   13  36.9  37.9 1009.4 -9.9 -9.999 -99.9 -99.99 -9.99
2020/01/19 18:30 EST    5.54   6.15   12  304   15  36.7  37.9 1009.5 -9.9 -9.999 -99.9 -99.99 -9.99
2020/01/19 18:36 EST    5.56   6.21   10  299   14  36.5  37.9 1009.6 -9.9 -9.999 -99.9 -99.99 -9.99
2020/01/19 18:42 EST    5.58   6.23   11  298   15  36.3  37.9 1009.6 -9.9 -9.999 -99.9 -99.99 -9.99
2020/01/19 18:48 EST    5.58   6.24   11  301   16  36.1  37.9 1009.7 -9.9 -9.999 -99.9 -99.99 -9.99
2020/01/19 18:54 EST    5.58   6.27   12  310   15  36.1  37.9 1009.8 -9.9 -9.999 -99.9 -99.99 -9.99
2020/01/19 19:00 EST    5.57   6.27   13  312   17  36.0  37.9 1009.9 -9.9 -9.999 -99.9 -99.99 -9.99
2020/01/19 19:06 EST    5.55   6.27   11  314   16  36.0  37.9 1010.1 -9.9 -9.999 -99.9 -99.99 -9.99
2020/01/19 19:12 EST    5.52   6.28   13  311   15  35.8  37.9 1010.2 -9.9 -9.999 -99.9 -99.99 -9.99
2020/01/19 19:18 EST    5.49   6.28   11  312   16  35.6  37.9 1010.2 -9.9 -9.999 -99.9 -99.99 -9.99
2020/01/19 19:24 EST    5.44   6.27   10  310   15  35.6  37.9 1010.4 -9.9 -9.999 -99.9 -99.99 -9.99
2020/01/19 19:30 EST    5.39   6.21   13  312   18  35.4  37.9 1010.4 -9.9 -9.999 -99.9 -99.99 -9.99
2020/01/19 19:36 EST    5.33   6.15   14  315   17  35.4  37.9 1010.4 -9.9 -9.999 -99.9 -99.99 -9.99
2020/01/19 19:42 EST    5.26   6.07   12  319   15  35.2  37.9 1010.6 -9.9 -9.999 -99.9 -99.99 -9.99
2020/01/19 19:48 EST    5.19   6.01   11  325   14  35.1  37.9 1010.7 -9.9 -9.999 -99.9 -99.99 -9.99
2020/01/19 19:54 EST    5.11   5.92   12  319   15  34.9  37.9 1010.8 -9.9 -9.999 -99.9 -99.99 -9.99
2020/01/19 20:00 EST    5.03   5.80   11  310   15  34.9  37.9 1010.8 -9.9 -9.999 -99.9 -99.99 -9.99
2020/01/19 20:06 EST    4.94   5.70   13  309   18  34.9  37.9 1010.8 -9.9 -9.999 -99.9 -99.99 -9.99
2020/01/19 20:12 EST    4.84   5.63   14  314   16  34.7  37.9 1010.8 -9.9 -9.999 -99.9 -99.99 -9.99
2020/01/19 20:18 EST    4.74   5.57   12  314   16  34.5  37.9 1010.8 -9.9 -9.999 -99.9 -99.99 -9.99
2020/01/19 20:24 EST    4.64   5.48   12  316   14  34.5  37.9 1010.8 -9.9 -9.999 -99.9 -99.99 -9.99
2020/01/19 20:30 EST    4.53   5.37   11  311   15  34.5  37.9 1010.9 -9.9 -9.999 -99.9 -99.99 -9.99
2020/01/19 20:36 EST    4.43   5.26   12  313   14  34.3  37.9 1010.9 -9.9 -9.999 -99.9 -99.99 -9.99
2020/01/19 20:42 EST    4.32   5.14   12  314   17  34.5  38.1 1011.0 -9.9 -9.999 -99.9 -99.99 -9.99
2020/01/19 20:48 EST    4.20   5.01   11  312   17  34.3  38.1 1011.2 -9.9 -9.999 -99.9 -99.99 -9.99
2020/01/19 20:54 EST    4.09   4.88   12  313   17  34.5  38.1 1011.2 -9.9 -9.999 -99.9 -99.99 -9.99
2020/01/19 21:00 EST    3.97   4.75   12  316   16  34.5  38.1 1011.2 -9.9 -9.999 -99.9 -99.99 -9.99
2020/01/19 21:06 EST    3.85   4.61   11  303   15  34.5  38.1 1011.2 -9.9 -9.999 -99.9 -99.99 -9.99
2020/01/19 21:12 EST    3.74   4.50   12  310   14  34.3  38.1 1011.3 -9.9 -9.999 -99.9 -99.99 -9.99
2020/01/19 21:18 EST    3.62   4.37   12  315   15  34.3  38.1 1011.4 -9.9 -9.999 -99.9 -99.99 -9.99
2020/01/19 21:24 EST    3.50   4.26   10  314   13  34.2  38.1 1011.5 -9.9 -9.999 -99.9 -99.99 -9.99
2020/01/19 21:30 EST    3.38   4.12   15  309   18  34.2  38.1 1011.5 -9.9 -9.999 -99.9 -99.99 -9.99
2020/01/19 21:36 EST    3.25   4.00   14  318   18  34.2  38.1 1011.7 -9.9 -9.999 -99.9 -99.99 -9.99
2020/01/19 21:42 EST    3.13   3.88   11  321   14  34.2  38.1 1011.8 -9.9 -9.999 -99.9 -99.99 -9.99
2020/01/19 21:48 EST    3.01   3.74   11  322   13  34.2  38.1 1011.9 -9.9 -9.999 -99.9 -99.99 -9.99
2020/01/19 21:54 EST    2.89   3.60    9  342   17  33.6  38.1 1012.1 -9.9 -9.999 -99.9 -99.99 -9.99
2020/01/19 22:00 EST    2.76   3.49    8  348   14  33.4  38.1 1012.1 -9.9 -9.999 -99.9 -99.99 -9.99
2020/01/19 22:06 EST    2.64   3.37   11  329   18  33.4  38.1 1012.1 -9.9 -9.999 -99.9 -99.99 -9.99
2020/01/19 22:12 EST    2.52   3.24   13  326   19  33.1  38.1 1012.1 -9.9 -9.999 -99.9 -99.99 -9.99
2020/01/19 22:18 EST    2.39   3.11   12  347   18  32.9  38.1 1012.2 -9.9 -9.999 -99.9 -99.99 -9.99
2020/01/19 22:24 EST    2.27   3.00   14  325   18  32.5  38.1 1012.4 -9.9 -9.999 -99.9 -99.99 -9.99
2020/01/19 22:30 EST    2.14   2.87   14  345   21  31.3  38.1 1012.5 -9.9 -9.999 -99.9 -99.99 -9.99
2020/01/19 22:36 EST    2.02   2.74   17  329   22  30.9  38.1 1012.4 -9.9 -9.999 -99.9 -99.99 -9.99
2020/01/19 22:42 EST    1.90   2.63   17  330   21  30.4  38.1 1012.4 -9.9 -9.999 -99.9 -99.99 -9.99
2020/01/19 22:48 EST    1.77   2.49   17  332   21  30.2  38.1 1012.7 -9.9 -9.999 -99.9 -99.99 -9.99
2020/01/19 22:54 EST    1.65   2.34   12  351   21  30.2  38.1 1013.0 -9.9 -9.999 -99.9 -99.99 -9.99
2020/01/19 23:00 EST    1.53   2.21   10  354   15  29.7  38.1 1013.3 -9.9 -9.999 -99.9 -99.99 -9.99
2020/01/19 23:06 EST    1.41   2.11   10  354   15  29.7  38.1 1013.4 -9.9 -9.999 -99.9 -99.99 -9.99
2020/01/19 23:12 EST    1.29   2.00    8  352   16  29.5  37.9 1013.5 -9.9 -9.999 -99.9 -99.99 -9.99
2020/01/19 23:18 EST    1.18   1.89    6  358   15  29.5  37.9 1013.5 -9.9 -9.999 -99.9 -99.99 -9.99
2020/01/19 23:24 EST    1.07   1.80   14  338   20  29.1  37.9 1013.4 -9.9 -9.999 -99.9 -99.99 -9.99
2020/01/19 23:30 EST    0.96   1.72    7    4   21  28.8  37.9 1013.6 -9.9 -9.999 -99.9 -99.99 -9.99
2020/01/19 23:36 EST    0.85   1.64    6   10   15  28.6  37.9 1013.8 -9.9 -9.999 -99.9 -99.99 -9.99
2020/01/19 23:42 EST    0.75   1.53    6   13   16  28.2  37.9 1013.8 -9.9 -9.999 -99.9 -99.99 -9.99
2020/01/19 23:48 EST    0.66   1.40    6    7   16  28.2  37.9 1013.8 -9.9 -9.999 -99.9 -99.99 -9.99
2020/01/19 23:54 EST    0.57   1.30    9    4   19  27.7  37.9 1013.8 -9.9 -9.999 -99.9 -99.99 -9.99
2020/01/20 00:00 EST    0.49   1.21    8   12   17  27.0  37.9 1013.9 -9.9 -9.999 -99.9 -99.99 -9.99
2020/01/20 00:06 EST    0.41   1.13    8   14   15  26.6  37.9 1014.1 -9.9 -9.999 -99.9 -99.99 -9.99
2020/01/20 00:12 EST    0.34   1.04    7    6   17  26.4  37.9 1014.1 -9.9 -9.999 -99.9 -99.99 -9.99
2020/01/20 00:18 EST    0.28   0.96    9  352   16  26.1  37.9 1014.3 -9.9 -9.999 -99.9 -99.99 -9.99
2020/01/20 00:24 EST    0.22   0.89    9  347   27  25.9  37.9 1014.3 -9.9 -9.999 -99.9 -99.99 -9.99
2020/01/20 00:30 EST    0.18   0.83   14  351   29  25.2  37.8 1014.4 -9.9 -9.999 -99.9 -99.99 -9.99
2020/01/20 00:36 EST    0.14 -99.99 -999 -999 -999 -99.9 -99.9 -999.9 -9.9 -9.999 -99.9 -99.99 -9.99